<?xml version="1.0" encoding="UTF-8" standalone="no" ?>
<gpx xmlns="http://www.topografix.com/GPX/1/1" xmlns:xsi="http://www.w3.org/2001/XMLSchema-instance" xsi:schemaLocation="http://www.topografix.com/GPX/1/1 http://www.topografix.com/GPX/1/1/gpx.xsd" version="1.1" creator="VisuGPX - https://www.visugpx.com">
  <metadata>
    <name>Tracé actuel: 07 SEPT 2020 12:57</name>
    <desc><![CDATA[une partie dans le bois a guerard]]></desc>
  </metadata>
  <trk>
    <name><![CDATA[Tracé actuel: 07 SEPT 2020 12:57]]></name>
    <trkseg>
      <trkpt lat="49.63457" lon="4.98033">
        <ele>184.71</ele>
        <time>2020-09-07T10:57:50Z</time>
      </trkpt>
      <trkpt lat="49.6346" lon="4.98031">
        <ele>183.27</ele>
        <time>2020-09-07T10:58:11Z</time>
      </trkpt>
      <trkpt lat="49.63464" lon="4.98033">
        <ele>179.9</ele>
        <time>2020-09-07T10:58:34Z</time>
      </trkpt>
      <trkpt lat="49.63455" lon="4.98032">
        <ele>179.9</ele>
        <time>2020-09-07T10:58:50Z</time>
      </trkpt>
      <trkpt lat="49.63444" lon="4.98052">
        <ele>180.87</ele>
        <time>2020-09-07T10:59:08Z</time>
      </trkpt>
      <trkpt lat="49.63431" lon="4.98032">
        <ele>182.31</ele>
        <time>2020-09-07T10:59:28Z</time>
      </trkpt>
      <trkpt lat="49.63416" lon="4.98015">
        <ele>183.27</ele>
        <time>2020-09-07T10:59:49Z</time>
      </trkpt>
      <trkpt lat="49.6341" lon="4.98002">
        <ele>181.83</ele>
        <time>2020-09-07T11:00:08Z</time>
      </trkpt>
      <trkpt lat="49.63399" lon="4.97985">
        <ele>179.9</ele>
        <time>2020-09-07T11:00:27Z</time>
      </trkpt>
      <trkpt lat="49.63391" lon="4.97965">
        <ele>177.5</ele>
        <time>2020-09-07T11:00:47Z</time>
      </trkpt>
      <trkpt lat="49.63397" lon="4.97936">
        <ele>175.1</ele>
        <time>2020-09-07T11:01:03Z</time>
      </trkpt>
      <trkpt lat="49.63412" lon="4.97915">
        <ele>177.5</ele>
        <time>2020-09-07T11:01:20Z</time>
      </trkpt>
      <trkpt lat="49.63427" lon="4.97904">
        <ele>177.02</ele>
        <time>2020-09-07T11:01:37Z</time>
      </trkpt>
      <trkpt lat="49.63441" lon="4.97898">
        <ele>174.62</ele>
        <time>2020-09-07T11:01:54Z</time>
      </trkpt>
      <trkpt lat="49.63459" lon="4.97884">
        <ele>172.21</ele>
        <time>2020-09-07T11:02:13Z</time>
      </trkpt>
      <trkpt lat="49.63463" lon="4.97877">
        <ele>171.25</ele>
        <time>2020-09-07T11:02:19Z</time>
      </trkpt>
      <trkpt lat="49.63474" lon="4.97863">
        <ele>168.85</ele>
        <time>2020-09-07T11:02:34Z</time>
      </trkpt>
      <trkpt lat="49.63484" lon="4.97847">
        <ele>164.04</ele>
        <time>2020-09-07T11:02:52Z</time>
      </trkpt>
      <trkpt lat="49.63494" lon="4.97833">
        <ele>157.79</ele>
        <time>2020-09-07T11:03:09Z</time>
      </trkpt>
      <trkpt lat="49.63508" lon="4.9781">
        <ele>157.79</ele>
        <time>2020-09-07T11:03:28Z</time>
      </trkpt>
      <trkpt lat="49.63521" lon="4.97805">
        <ele>161.16</ele>
        <time>2020-09-07T11:03:40Z</time>
      </trkpt>
      <trkpt lat="49.63542" lon="4.97782">
        <ele>168.85</ele>
        <time>2020-09-07T11:04:01Z</time>
      </trkpt>
      <trkpt lat="49.63554" lon="4.9776">
        <ele>171.25</ele>
        <time>2020-09-07T11:04:18Z</time>
      </trkpt>
      <trkpt lat="49.63557" lon="4.97728">
        <ele>176.54</ele>
        <time>2020-09-07T11:04:35Z</time>
      </trkpt>
      <trkpt lat="49.6357" lon="4.97695">
        <ele>177.5</ele>
        <time>2020-09-07T11:04:57Z</time>
      </trkpt>
      <trkpt lat="49.63581" lon="4.97672">
        <ele>176.54</ele>
        <time>2020-09-07T11:05:12Z</time>
      </trkpt>
      <trkpt lat="49.63594" lon="4.97662">
        <ele>173.66</ele>
        <time>2020-09-07T11:05:29Z</time>
      </trkpt>
      <trkpt lat="49.63599" lon="4.97661">
        <ele>173.17</ele>
        <time>2020-09-07T11:05:34Z</time>
      </trkpt>
      <trkpt lat="49.63601" lon="4.97659">
        <ele>173.17</ele>
        <time>2020-09-07T11:05:36Z</time>
      </trkpt>
      <trkpt lat="49.63618" lon="4.97653">
        <ele>172.21</ele>
        <time>2020-09-07T11:05:54Z</time>
      </trkpt>
      <trkpt lat="49.63624" lon="4.97646">
        <ele>170.77</ele>
        <time>2020-09-07T11:06:03Z</time>
      </trkpt>
      <trkpt lat="49.63641" lon="4.97632">
        <ele>169.33</ele>
        <time>2020-09-07T11:06:19Z</time>
      </trkpt>
      <trkpt lat="49.63648" lon="4.9761">
        <ele>167.41</ele>
        <time>2020-09-07T11:06:37Z</time>
      </trkpt>
      <trkpt lat="49.63647" lon="4.97579">
        <ele>167.41</ele>
        <time>2020-09-07T11:06:58Z</time>
      </trkpt>
      <trkpt lat="49.63646" lon="4.97572">
        <ele>167.41</ele>
        <time>2020-09-07T11:07:02Z</time>
      </trkpt>
      <trkpt lat="49.63643" lon="4.97534">
        <ele>171.25</ele>
        <time>2020-09-07T11:07:22Z</time>
      </trkpt>
      <trkpt lat="49.63643" lon="4.97503">
        <ele>177.02</ele>
        <time>2020-09-07T11:07:41Z</time>
      </trkpt>
      <trkpt lat="49.63646" lon="4.9747">
        <ele>182.79</ele>
        <time>2020-09-07T11:08:04Z</time>
      </trkpt>
      <trkpt lat="49.63651" lon="4.97435">
        <ele>186.63</ele>
        <time>2020-09-07T11:08:23Z</time>
      </trkpt>
      <trkpt lat="49.6364" lon="4.97417">
        <ele>185.19</ele>
        <time>2020-09-07T11:08:42Z</time>
      </trkpt>
      <trkpt lat="49.63624" lon="4.974">
        <ele>184.71</ele>
        <time>2020-09-07T11:08:58Z</time>
      </trkpt>
      <trkpt lat="49.63608" lon="4.9738">
        <ele>185.67</ele>
        <time>2020-09-07T11:09:18Z</time>
      </trkpt>
      <trkpt lat="49.63591" lon="4.97361">
        <ele>185.67</ele>
        <time>2020-09-07T11:09:38Z</time>
      </trkpt>
      <trkpt lat="49.63575" lon="4.97348">
        <ele>184.23</ele>
        <time>2020-09-07T11:09:56Z</time>
      </trkpt>
      <trkpt lat="49.63563" lon="4.97328">
        <ele>183.27</ele>
        <time>2020-09-07T11:10:15Z</time>
      </trkpt>
      <trkpt lat="49.63556" lon="4.97301">
        <ele>184.23</ele>
        <time>2020-09-07T11:10:33Z</time>
      </trkpt>
      <trkpt lat="49.63549" lon="4.9727">
        <ele>184.23</ele>
        <time>2020-09-07T11:10:53Z</time>
      </trkpt>
      <trkpt lat="49.63543" lon="4.97245">
        <ele>184.23</ele>
        <time>2020-09-07T11:11:10Z</time>
      </trkpt>
      <trkpt lat="49.63535" lon="4.97215">
        <ele>184.71</ele>
        <time>2020-09-07T11:11:30Z</time>
      </trkpt>
      <trkpt lat="49.63525" lon="4.97181">
        <ele>183.27</ele>
        <time>2020-09-07T11:11:52Z</time>
      </trkpt>
      <trkpt lat="49.63514" lon="4.97142">
        <ele>182.31</ele>
        <time>2020-09-07T11:12:17Z</time>
      </trkpt>
      <trkpt lat="49.63505" lon="4.97107">
        <ele>182.31</ele>
        <time>2020-09-07T11:12:40Z</time>
      </trkpt>
      <trkpt lat="49.63496" lon="4.97074">
        <ele>183.27</ele>
        <time>2020-09-07T11:13:02Z</time>
      </trkpt>
      <trkpt lat="49.63486" lon="4.97044">
        <ele>181.83</ele>
        <time>2020-09-07T11:13:22Z</time>
      </trkpt>
      <trkpt lat="49.63477" lon="4.97016">
        <ele>180.87</ele>
        <time>2020-09-07T11:13:41Z</time>
      </trkpt>
      <trkpt lat="49.63473" lon="4.96982">
        <ele>178.94</ele>
        <time>2020-09-07T11:14:02Z</time>
      </trkpt>
      <trkpt lat="49.63465" lon="4.96955">
        <ele>175.1</ele>
        <time>2020-09-07T11:14:20Z</time>
      </trkpt>
      <trkpt lat="49.63451" lon="4.9693">
        <ele>174.14</ele>
        <time>2020-09-07T11:14:41Z</time>
      </trkpt>
      <trkpt lat="49.63436" lon="4.9691">
        <ele>173.66</ele>
        <time>2020-09-07T11:15:00Z</time>
      </trkpt>
      <trkpt lat="49.63419" lon="4.96889">
        <ele>172.69</ele>
        <time>2020-09-07T11:15:20Z</time>
      </trkpt>
      <trkpt lat="49.63402" lon="4.96872">
        <ele>173.17</ele>
        <time>2020-09-07T11:15:39Z</time>
      </trkpt>
      <trkpt lat="49.63388" lon="4.96854">
        <ele>170.29</ele>
        <time>2020-09-07T11:15:56Z</time>
      </trkpt>
      <trkpt lat="49.63375" lon="4.96837">
        <ele>171.73</ele>
        <time>2020-09-07T11:16:11Z</time>
      </trkpt>
      <trkpt lat="49.63363" lon="4.96823">
        <ele>171.25</ele>
        <time>2020-09-07T11:16:27Z</time>
      </trkpt>
      <trkpt lat="49.63361" lon="4.96821">
        <ele>171.25</ele>
        <time>2020-09-07T11:16:30Z</time>
      </trkpt>
      <trkpt lat="49.63349" lon="4.96804">
        <ele>170.77</ele>
        <time>2020-09-07T11:16:46Z</time>
      </trkpt>
      <trkpt lat="49.63349" lon="4.96803">
        <ele>170.77</ele>
        <time>2020-09-07T11:16:47Z</time>
      </trkpt>
      <trkpt lat="49.63341" lon="4.96774">
        <ele>170.77</ele>
        <time>2020-09-07T11:17:07Z</time>
      </trkpt>
      <trkpt lat="49.63336" lon="4.96747">
        <ele>169.33</ele>
        <time>2020-09-07T11:17:26Z</time>
      </trkpt>
      <trkpt lat="49.63331" lon="4.9672">
        <ele>167.89</ele>
        <time>2020-09-07T11:17:45Z</time>
      </trkpt>
      <trkpt lat="49.63323" lon="4.967">
        <ele>167.89</ele>
        <time>2020-09-07T11:17:59Z</time>
      </trkpt>
      <trkpt lat="49.6331" lon="4.96676">
        <ele>165.96</ele>
        <time>2020-09-07T11:18:17Z</time>
      </trkpt>
      <trkpt lat="49.63297" lon="4.96656">
        <ele>165</ele>
        <time>2020-09-07T11:18:34Z</time>
      </trkpt>
      <trkpt lat="49.63287" lon="4.9663">
        <ele>163.56</ele>
        <time>2020-09-07T11:18:53Z</time>
      </trkpt>
      <trkpt lat="49.63281" lon="4.96615">
        <ele>164.52</ele>
        <time>2020-09-07T11:19:04Z</time>
      </trkpt>
      <trkpt lat="49.63286" lon="4.96606">
        <ele>166.93</ele>
        <time>2020-09-07T11:19:12Z</time>
      </trkpt>
      <trkpt lat="49.63304" lon="4.96611">
        <ele>171.73</ele>
        <time>2020-09-07T11:19:29Z</time>
      </trkpt>
      <trkpt lat="49.63319" lon="4.96619">
        <ele>171.25</ele>
        <time>2020-09-07T11:19:46Z</time>
      </trkpt>
      <trkpt lat="49.63337" lon="4.96634">
        <ele>174.62</ele>
        <time>2020-09-07T11:20:04Z</time>
      </trkpt>
      <trkpt lat="49.63351" lon="4.96652">
        <ele>177.02</ele>
        <time>2020-09-07T11:20:22Z</time>
      </trkpt>
      <trkpt lat="49.63363" lon="4.96668">
        <ele>178.46</ele>
        <time>2020-09-07T11:20:38Z</time>
      </trkpt>
      <trkpt lat="49.63377" lon="4.96665">
        <ele>180.87</ele>
        <time>2020-09-07T11:20:55Z</time>
      </trkpt>
      <trkpt lat="49.63386" lon="4.96655">
        <ele>181.35</ele>
        <time>2020-09-07T11:21:05Z</time>
      </trkpt>
      <trkpt lat="49.63402" lon="4.96633">
        <ele>184.23</ele>
        <time>2020-09-07T11:21:25Z</time>
      </trkpt>
      <trkpt lat="49.63418" lon="4.96611">
        <ele>184.23</ele>
        <time>2020-09-07T11:21:45Z</time>
      </trkpt>
      <trkpt lat="49.63433" lon="4.96589">
        <ele>186.63</ele>
        <time>2020-09-07T11:22:06Z</time>
      </trkpt>
      <trkpt lat="49.63447" lon="4.9657">
        <ele>187.59</ele>
        <time>2020-09-07T11:22:24Z</time>
      </trkpt>
      <trkpt lat="49.6346" lon="4.96549">
        <ele>189.04</ele>
        <time>2020-09-07T11:22:42Z</time>
      </trkpt>
      <trkpt lat="49.63475" lon="4.96529">
        <ele>190.96</ele>
        <time>2020-09-07T11:23:01Z</time>
      </trkpt>
      <trkpt lat="49.63493" lon="4.96508">
        <ele>192.88</ele>
        <time>2020-09-07T11:23:24Z</time>
      </trkpt>
      <trkpt lat="49.63512" lon="4.96491">
        <ele>193.84</ele>
        <time>2020-09-07T11:23:44Z</time>
      </trkpt>
      <trkpt lat="49.63529" lon="4.96474">
        <ele>196.73</ele>
        <time>2020-09-07T11:24:04Z</time>
      </trkpt>
      <trkpt lat="49.63548" lon="4.96457">
        <ele>197.69</ele>
        <time>2020-09-07T11:24:25Z</time>
      </trkpt>
      <trkpt lat="49.63568" lon="4.96442">
        <ele>198.17</ele>
        <time>2020-09-07T11:24:46Z</time>
      </trkpt>
      <trkpt lat="49.63586" lon="4.96427">
        <ele>200.09</ele>
        <time>2020-09-07T11:25:05Z</time>
      </trkpt>
      <trkpt lat="49.63602" lon="4.96411">
        <ele>200.09</ele>
        <time>2020-09-07T11:25:24Z</time>
      </trkpt>
      <trkpt lat="49.63603" lon="4.9641">
        <ele>200.09</ele>
        <time>2020-09-07T11:25:25Z</time>
      </trkpt>
      <trkpt lat="49.63614" lon="4.9639">
        <ele>199.61</ele>
        <time>2020-09-07T11:25:42Z</time>
      </trkpt>
      <trkpt lat="49.63622" lon="4.96359">
        <ele>200.09</ele>
        <time>2020-09-07T11:26:02Z</time>
      </trkpt>
      <trkpt lat="49.63625" lon="4.96345">
        <ele>200.09</ele>
        <time>2020-09-07T11:26:11Z</time>
      </trkpt>
      <trkpt lat="49.63625" lon="4.96318">
        <ele>202.49</ele>
        <time>2020-09-07T11:26:30Z</time>
      </trkpt>
      <trkpt lat="49.63625" lon="4.96294">
        <ele>202.49</ele>
        <time>2020-09-07T11:26:46Z</time>
      </trkpt>
      <trkpt lat="49.63624" lon="4.96265">
        <ele>202.98</ele>
        <time>2020-09-07T11:27:05Z</time>
      </trkpt>
      <trkpt lat="49.63623" lon="4.96255">
        <ele>202.98</ele>
        <time>2020-09-07T11:27:26Z</time>
      </trkpt>
      <trkpt lat="49.6362" lon="4.96235">
        <ele>206.34</ele>
        <time>2020-09-07T11:27:47Z</time>
      </trkpt>
      <trkpt lat="49.63622" lon="4.96203">
        <ele>215.47</ele>
        <time>2020-09-07T11:28:09Z</time>
      </trkpt>
      <trkpt lat="49.63615" lon="4.96181">
        <ele>217.4</ele>
        <time>2020-09-07T11:28:29Z</time>
      </trkpt>
      <trkpt lat="49.63603" lon="4.96174">
        <ele>218.36</ele>
        <time>2020-09-07T11:28:52Z</time>
      </trkpt>
      <trkpt lat="49.63592" lon="4.96169">
        <ele>217.4</ele>
        <time>2020-09-07T11:29:12Z</time>
      </trkpt>
      <trkpt lat="49.63564" lon="4.96165">
        <ele>215.47</ele>
        <time>2020-09-07T11:29:32Z</time>
      </trkpt>
      <trkpt lat="49.63542" lon="4.96161">
        <ele>221.72</ele>
        <time>2020-09-07T11:29:54Z</time>
      </trkpt>
      <trkpt lat="49.63525" lon="4.96148">
        <ele>224.61</ele>
        <time>2020-09-07T11:30:21Z</time>
      </trkpt>
      <trkpt lat="49.63503" lon="4.96144">
        <ele>224.61</ele>
        <time>2020-09-07T11:30:42Z</time>
      </trkpt>
      <trkpt lat="49.63485" lon="4.96136">
        <ele>225.57</ele>
        <time>2020-09-07T11:31:02Z</time>
      </trkpt>
      <trkpt lat="49.63473" lon="4.96136">
        <ele>222.2</ele>
        <time>2020-09-07T11:31:23Z</time>
      </trkpt>
      <trkpt lat="49.6346" lon="4.96141">
        <ele>221.24</ele>
        <time>2020-09-07T11:31:42Z</time>
      </trkpt>
      <trkpt lat="49.63424" lon="4.9615">
        <ele>225.09</ele>
        <time>2020-09-07T11:32:05Z</time>
      </trkpt>
      <trkpt lat="49.63394" lon="4.96157">
        <ele>232.78</ele>
        <time>2020-09-07T11:32:30Z</time>
      </trkpt>
      <trkpt lat="49.63375" lon="4.96153">
        <ele>233.74</ele>
        <time>2020-09-07T11:32:53Z</time>
      </trkpt>
      <trkpt lat="49.63356" lon="4.96145">
        <ele>235.18</ele>
        <time>2020-09-07T11:33:13Z</time>
      </trkpt>
      <trkpt lat="49.63334" lon="4.96133">
        <ele>234.7</ele>
        <time>2020-09-07T11:33:37Z</time>
      </trkpt>
      <trkpt lat="49.63321" lon="4.96126">
        <ele>234.7</ele>
        <time>2020-09-07T11:33:57Z</time>
      </trkpt>
      <trkpt lat="49.63312" lon="4.9612">
        <ele>235.66</ele>
        <time>2020-09-07T11:34:18Z</time>
      </trkpt>
      <trkpt lat="49.63298" lon="4.96107">
        <ele>240.47</ele>
        <time>2020-09-07T11:34:44Z</time>
      </trkpt>
      <trkpt lat="49.63278" lon="4.96082">
        <ele>241.91</ele>
        <time>2020-09-07T11:35:03Z</time>
      </trkpt>
      <trkpt lat="49.63263" lon="4.96061">
        <ele>247.2</ele>
        <time>2020-09-07T11:35:25Z</time>
      </trkpt>
      <trkpt lat="49.63255" lon="4.96039">
        <ele>246.23</ele>
        <time>2020-09-07T11:35:44Z</time>
      </trkpt>
      <trkpt lat="49.6324" lon="4.96021">
        <ele>246.72</ele>
        <time>2020-09-07T11:36:05Z</time>
      </trkpt>
      <trkpt lat="49.6323" lon="4.96011">
        <ele>247.2</ele>
        <time>2020-09-07T11:36:24Z</time>
      </trkpt>
      <trkpt lat="49.63219" lon="4.96">
        <ele>249.12</ele>
        <time>2020-09-07T11:36:45Z</time>
      </trkpt>
      <trkpt lat="49.63219" lon="4.96">
        <ele>252</ele>
        <time>2020-09-07T11:37:07Z</time>
      </trkpt>
      <trkpt lat="49.63227" lon="4.96009">
        <ele>252</ele>
        <time>2020-09-07T11:37:27Z</time>
      </trkpt>
      <trkpt lat="49.63241" lon="4.9602">
        <ele>251.52</ele>
        <time>2020-09-07T11:37:47Z</time>
      </trkpt>
      <trkpt lat="49.63255" lon="4.96038">
        <ele>250.08</ele>
        <time>2020-09-07T11:38:04Z</time>
      </trkpt>
      <trkpt lat="49.63265" lon="4.96052">
        <ele>247.68</ele>
        <time>2020-09-07T11:38:23Z</time>
      </trkpt>
      <trkpt lat="49.6327" lon="4.9606">
        <ele>247.2</ele>
        <time>2020-09-07T11:38:42Z</time>
      </trkpt>
      <trkpt lat="49.63282" lon="4.96077">
        <ele>244.31</ele>
        <time>2020-09-07T11:39:02Z</time>
      </trkpt>
      <trkpt lat="49.63297" lon="4.96092">
        <ele>242.39</ele>
        <time>2020-09-07T11:39:22Z</time>
      </trkpt>
      <trkpt lat="49.6331" lon="4.96105">
        <ele>240.47</ele>
        <time>2020-09-07T11:39:43Z</time>
      </trkpt>
      <trkpt lat="49.63317" lon="4.96114">
        <ele>239.99</ele>
        <time>2020-09-07T11:40:02Z</time>
      </trkpt>
      <trkpt lat="49.63333" lon="4.96125">
        <ele>241.43</ele>
        <time>2020-09-07T11:40:19Z</time>
      </trkpt>
      <trkpt lat="49.63359" lon="4.96135">
        <ele>239.51</ele>
        <time>2020-09-07T11:40:41Z</time>
      </trkpt>
      <trkpt lat="49.63369" lon="4.96143">
        <ele>239.02</ele>
        <time>2020-09-07T11:41:01Z</time>
      </trkpt>
      <trkpt lat="49.63382" lon="4.96147">
        <ele>237.1</ele>
        <time>2020-09-07T11:41:22Z</time>
      </trkpt>
      <trkpt lat="49.63398" lon="4.96151">
        <ele>235.66</ele>
        <time>2020-09-07T11:41:42Z</time>
      </trkpt>
      <trkpt lat="49.6341" lon="4.96151">
        <ele>234.7</ele>
        <time>2020-09-07T11:41:59Z</time>
      </trkpt>
      <trkpt lat="49.63425" lon="4.96153">
        <ele>232.3</ele>
        <time>2020-09-07T11:42:17Z</time>
      </trkpt>
      <trkpt lat="49.63445" lon="4.96145">
        <ele>228.45</ele>
        <time>2020-09-07T11:42:38Z</time>
      </trkpt>
      <trkpt lat="49.6346" lon="4.9614">
        <ele>225.09</ele>
        <time>2020-09-07T11:43:00Z</time>
      </trkpt>
      <trkpt lat="49.63482" lon="4.96137">
        <ele>230.37</ele>
        <time>2020-09-07T11:43:21Z</time>
      </trkpt>
      <trkpt lat="49.635" lon="4.96139">
        <ele>232.3</ele>
        <time>2020-09-07T11:43:39Z</time>
      </trkpt>
      <trkpt lat="49.63518" lon="4.96153">
        <ele>233.26</ele>
        <time>2020-09-07T11:44:01Z</time>
      </trkpt>
      <trkpt lat="49.63536" lon="4.96155">
        <ele>233.26</ele>
        <time>2020-09-07T11:44:22Z</time>
      </trkpt>
      <trkpt lat="49.63544" lon="4.96156">
        <ele>232.78</ele>
        <time>2020-09-07T11:44:39Z</time>
      </trkpt>
      <trkpt lat="49.6357" lon="4.96165">
        <ele>225.09</ele>
        <time>2020-09-07T11:45:00Z</time>
      </trkpt>
      <trkpt lat="49.63575" lon="4.96168">
        <ele>224.12</ele>
        <time>2020-09-07T11:45:20Z</time>
      </trkpt>
      <trkpt lat="49.63581" lon="4.9617">
        <ele>222.68</ele>
        <time>2020-09-07T11:45:41Z</time>
      </trkpt>
      <trkpt lat="49.63592" lon="4.96169">
        <ele>221.24</ele>
        <time>2020-09-07T11:46:00Z</time>
      </trkpt>
      <trkpt lat="49.63603" lon="4.96171">
        <ele>220.28</ele>
        <time>2020-09-07T11:46:20Z</time>
      </trkpt>
      <trkpt lat="49.6362" lon="4.96156">
        <ele>223.64</ele>
        <time>2020-09-07T11:46:38Z</time>
      </trkpt>
      <trkpt lat="49.63627" lon="4.96151">
        <ele>227.01</ele>
        <time>2020-09-07T11:46:58Z</time>
      </trkpt>
      <trkpt lat="49.63639" lon="4.96133">
        <ele>229.89</ele>
        <time>2020-09-07T11:47:17Z</time>
      </trkpt>
      <trkpt lat="49.63649" lon="4.96111">
        <ele>235.66</ele>
        <time>2020-09-07T11:47:36Z</time>
      </trkpt>
      <trkpt lat="49.63657" lon="4.96098">
        <ele>238.06</ele>
        <time>2020-09-07T11:47:51Z</time>
      </trkpt>
      <trkpt lat="49.6367" lon="4.96082">
        <ele>244.31</ele>
        <time>2020-09-07T11:48:10Z</time>
      </trkpt>
      <trkpt lat="49.63675" lon="4.96071">
        <ele>247.68</ele>
        <time>2020-09-07T11:48:30Z</time>
      </trkpt>
      <trkpt lat="49.63677" lon="4.96055">
        <ele>247.68</ele>
        <time>2020-09-07T11:48:53Z</time>
      </trkpt>
      <trkpt lat="49.63682" lon="4.96025">
        <ele>251.04</ele>
        <time>2020-09-07T11:49:12Z</time>
      </trkpt>
      <trkpt lat="49.63688" lon="4.96021">
        <ele>252</ele>
        <time>2020-09-07T11:49:34Z</time>
      </trkpt>
      <trkpt lat="49.63688" lon="4.96017">
        <ele>251.52</ele>
        <time>2020-09-07T11:49:58Z</time>
      </trkpt>
      <trkpt lat="49.63691" lon="4.95972">
        <ele>256.33</ele>
        <time>2020-09-07T11:50:23Z</time>
      </trkpt>
      <trkpt lat="49.63697" lon="4.95954">
        <ele>258.25</ele>
        <time>2020-09-07T11:50:43Z</time>
      </trkpt>
      <trkpt lat="49.63698" lon="4.95952">
        <ele>258.73</ele>
        <time>2020-09-07T11:51:06Z</time>
      </trkpt>
      <trkpt lat="49.63699" lon="4.95945">
        <ele>260.17</ele>
        <time>2020-09-07T11:51:25Z</time>
      </trkpt>
      <trkpt lat="49.63699" lon="4.95938">
        <ele>261.62</ele>
        <time>2020-09-07T11:51:45Z</time>
      </trkpt>
      <trkpt lat="49.63701" lon="4.95931">
        <ele>264.02</ele>
        <time>2020-09-07T11:52:07Z</time>
      </trkpt>
      <trkpt lat="49.637" lon="4.95926">
        <ele>264.98</ele>
        <time>2020-09-07T11:52:25Z</time>
      </trkpt>
      <trkpt lat="49.63706" lon="4.9592">
        <ele>266.9</ele>
        <time>2020-09-07T11:52:49Z</time>
      </trkpt>
      <trkpt lat="49.63707" lon="4.95918">
        <ele>266.9</ele>
        <time>2020-09-07T11:53:12Z</time>
      </trkpt>
      <trkpt lat="49.63708" lon="4.95916">
        <ele>267.38</ele>
        <time>2020-09-07T11:53:34Z</time>
      </trkpt>
      <trkpt lat="49.63711" lon="4.95914">
        <ele>267.38</ele>
        <time>2020-09-07T11:54:02Z</time>
      </trkpt>
      <trkpt lat="49.63717" lon="4.9592">
        <ele>267.38</ele>
        <time>2020-09-07T11:54:22Z</time>
      </trkpt>
      <trkpt lat="49.63729" lon="4.95932">
        <ele>266.9</ele>
        <time>2020-09-07T11:54:44Z</time>
      </trkpt>
      <trkpt lat="49.63733" lon="4.9594">
        <ele>265.94</ele>
        <time>2020-09-07T11:55:03Z</time>
      </trkpt>
      <trkpt lat="49.63751" lon="4.95967">
        <ele>265.46</ele>
        <time>2020-09-07T11:55:24Z</time>
      </trkpt>
      <trkpt lat="49.63775" lon="4.95997">
        <ele>265.46</ele>
        <time>2020-09-07T11:55:44Z</time>
      </trkpt>
      <trkpt lat="49.63788" lon="4.96014">
        <ele>263.06</ele>
        <time>2020-09-07T11:56:03Z</time>
      </trkpt>
      <trkpt lat="49.63797" lon="4.96028">
        <ele>262.1</ele>
        <time>2020-09-07T11:56:23Z</time>
      </trkpt>
      <trkpt lat="49.63806" lon="4.96039">
        <ele>264.02</ele>
        <time>2020-09-07T11:56:44Z</time>
      </trkpt>
      <trkpt lat="49.63808" lon="4.96043">
        <ele>264.98</ele>
        <time>2020-09-07T11:57:06Z</time>
      </trkpt>
      <trkpt lat="49.63818" lon="4.96059">
        <ele>264.02</ele>
        <time>2020-09-07T11:57:27Z</time>
      </trkpt>
      <trkpt lat="49.63827" lon="4.96074">
        <ele>266.42</ele>
        <time>2020-09-07T11:57:46Z</time>
      </trkpt>
      <trkpt lat="49.63847" lon="4.96075">
        <ele>267.86</ele>
        <time>2020-09-07T11:58:06Z</time>
      </trkpt>
      <trkpt lat="49.63862" lon="4.96089">
        <ele>264.98</ele>
        <time>2020-09-07T11:58:24Z</time>
      </trkpt>
      <trkpt lat="49.63876" lon="4.96102">
        <ele>268.83</ele>
        <time>2020-09-07T11:58:42Z</time>
      </trkpt>
      <trkpt lat="49.63893" lon="4.96119">
        <ele>267.86</ele>
        <time>2020-09-07T11:59:03Z</time>
      </trkpt>
      <trkpt lat="49.63912" lon="4.96134">
        <ele>269.79</ele>
        <time>2020-09-07T11:59:25Z</time>
      </trkpt>
      <trkpt lat="49.63926" lon="4.96102">
        <ele>269.31</ele>
        <time>2020-09-07T11:59:48Z</time>
      </trkpt>
      <trkpt lat="49.63931" lon="4.96077">
        <ele>270.75</ele>
        <time>2020-09-07T12:00:09Z</time>
      </trkpt>
      <trkpt lat="49.63942" lon="4.96051">
        <ele>275.56</ele>
        <time>2020-09-07T12:00:28Z</time>
      </trkpt>
      <trkpt lat="49.63954" lon="4.96025">
        <ele>275.56</ele>
        <time>2020-09-07T12:00:46Z</time>
      </trkpt>
      <trkpt lat="49.63963" lon="4.95991">
        <ele>279.88</ele>
        <time>2020-09-07T12:01:09Z</time>
      </trkpt>
      <trkpt lat="49.63979" lon="4.95966">
        <ele>281.8</ele>
        <time>2020-09-07T12:01:31Z</time>
      </trkpt>
      <trkpt lat="49.63993" lon="4.95931">
        <ele>282.77</ele>
        <time>2020-09-07T12:01:56Z</time>
      </trkpt>
      <trkpt lat="49.63999" lon="4.959">
        <ele>285.17</ele>
        <time>2020-09-07T12:02:18Z</time>
      </trkpt>
      <trkpt lat="49.64012" lon="4.95866">
        <ele>289.01</ele>
        <time>2020-09-07T12:02:42Z</time>
      </trkpt>
      <trkpt lat="49.64014" lon="4.95854">
        <ele>289.49</ele>
        <time>2020-09-07T12:03:01Z</time>
      </trkpt>
      <trkpt lat="49.64028" lon="4.95808">
        <ele>289.97</ele>
        <time>2020-09-07T12:03:26Z</time>
      </trkpt>
      <trkpt lat="49.64035" lon="4.95794">
        <ele>290.46</ele>
        <time>2020-09-07T12:03:46Z</time>
      </trkpt>
      <trkpt lat="49.64044" lon="4.95783">
        <ele>289.97</ele>
        <time>2020-09-07T12:04:05Z</time>
      </trkpt>
      <trkpt lat="49.6405" lon="4.95778">
        <ele>293.82</ele>
        <time>2020-09-07T12:04:27Z</time>
      </trkpt>
      <trkpt lat="49.6405" lon="4.95779">
        <ele>294.3</ele>
        <time>2020-09-07T12:04:53Z</time>
      </trkpt>
      <trkpt lat="49.6405" lon="4.95781">
        <ele>294.78</ele>
        <time>2020-09-07T12:05:16Z</time>
      </trkpt>
      <trkpt lat="49.6405" lon="4.95781">
        <ele>296.22</ele>
        <time>2020-09-07T12:05:42Z</time>
      </trkpt>
      <trkpt lat="49.6405" lon="4.95782">
        <ele>296.22</ele>
        <time>2020-09-07T12:06:00Z</time>
      </trkpt>
      <trkpt lat="49.6405" lon="4.95782">
        <ele>295.26</ele>
        <time>2020-09-07T12:06:29Z</time>
      </trkpt>
      <trkpt lat="49.64053" lon="4.95782">
        <ele>293.34</ele>
        <time>2020-09-07T12:06:56Z</time>
      </trkpt>
      <trkpt lat="49.64054" lon="4.95781">
        <ele>292.86</ele>
        <time>2020-09-07T12:07:22Z</time>
      </trkpt>
      <trkpt lat="49.64052" lon="4.95782">
        <ele>293.34</ele>
        <time>2020-09-07T12:07:57Z</time>
      </trkpt>
      <trkpt lat="49.64052" lon="4.95783">
        <ele>293.82</ele>
        <time>2020-09-07T12:08:32Z</time>
      </trkpt>
      <trkpt lat="49.64052" lon="4.95783">
        <ele>293.82</ele>
        <time>2020-09-07T12:09:03Z</time>
      </trkpt>
      <trkpt lat="49.64052" lon="4.95783">
        <ele>293.34</ele>
        <time>2020-09-07T12:09:34Z</time>
      </trkpt>
      <trkpt lat="49.64052" lon="4.95782">
        <ele>293.34</ele>
        <time>2020-09-07T12:09:59Z</time>
      </trkpt>
      <trkpt lat="49.64044" lon="4.95773">
        <ele>291.42</ele>
        <time>2020-09-07T12:10:17Z</time>
      </trkpt>
      <trkpt lat="49.64032" lon="4.95758">
        <ele>289.49</ele>
        <time>2020-09-07T12:10:33Z</time>
      </trkpt>
      <trkpt lat="49.6402" lon="4.95743">
        <ele>288.53</ele>
        <time>2020-09-07T12:10:49Z</time>
      </trkpt>
      <trkpt lat="49.64007" lon="4.95727">
        <ele>287.09</ele>
        <time>2020-09-07T12:11:06Z</time>
      </trkpt>
      <trkpt lat="49.64002" lon="4.95722">
        <ele>286.13</ele>
        <time>2020-09-07T12:11:12Z</time>
      </trkpt>
      <trkpt lat="49.63987" lon="4.95708">
        <ele>284.69</ele>
        <time>2020-09-07T12:11:29Z</time>
      </trkpt>
      <trkpt lat="49.63973" lon="4.95691">
        <ele>286.13</ele>
        <time>2020-09-07T12:11:46Z</time>
      </trkpt>
      <trkpt lat="49.6396" lon="4.95677">
        <ele>286.13</ele>
        <time>2020-09-07T12:12:01Z</time>
      </trkpt>
      <trkpt lat="49.63945" lon="4.95658">
        <ele>286.61</ele>
        <time>2020-09-07T12:12:21Z</time>
      </trkpt>
      <trkpt lat="49.63929" lon="4.95642">
        <ele>285.65</ele>
        <time>2020-09-07T12:12:40Z</time>
      </trkpt>
      <trkpt lat="49.63912" lon="4.95623">
        <ele>285.17</ele>
        <time>2020-09-07T12:12:59Z</time>
      </trkpt>
      <trkpt lat="49.63897" lon="4.95607">
        <ele>285.65</ele>
        <time>2020-09-07T12:13:16Z</time>
      </trkpt>
      <trkpt lat="49.63881" lon="4.9559">
        <ele>284.21</ele>
        <time>2020-09-07T12:13:35Z</time>
      </trkpt>
      <trkpt lat="49.63864" lon="4.95574">
        <ele>284.69</ele>
        <time>2020-09-07T12:13:53Z</time>
      </trkpt>
      <trkpt lat="49.63848" lon="4.95556">
        <ele>284.69</ele>
        <time>2020-09-07T12:14:12Z</time>
      </trkpt>
      <trkpt lat="49.63832" lon="4.95536">
        <ele>283.25</ele>
        <time>2020-09-07T12:14:32Z</time>
      </trkpt>
      <trkpt lat="49.63818" lon="4.95521">
        <ele>282.28</ele>
        <time>2020-09-07T12:14:49Z</time>
      </trkpt>
      <trkpt lat="49.63807" lon="4.95513">
        <ele>283.25</ele>
        <time>2020-09-07T12:14:59Z</time>
      </trkpt>
      <trkpt lat="49.6379" lon="4.95497">
        <ele>284.69</ele>
        <time>2020-09-07T12:15:16Z</time>
      </trkpt>
      <trkpt lat="49.63774" lon="4.95479">
        <ele>285.65</ele>
        <time>2020-09-07T12:15:34Z</time>
      </trkpt>
      <trkpt lat="49.63754" lon="4.95458">
        <ele>284.69</ele>
        <time>2020-09-07T12:15:56Z</time>
      </trkpt>
      <trkpt lat="49.63733" lon="4.95434">
        <ele>285.17</ele>
        <time>2020-09-07T12:16:20Z</time>
      </trkpt>
      <trkpt lat="49.63714" lon="4.95414">
        <ele>285.65</ele>
        <time>2020-09-07T12:16:40Z</time>
      </trkpt>
      <trkpt lat="49.63705" lon="4.95404">
        <ele>285.17</ele>
        <time>2020-09-07T12:16:56Z</time>
      </trkpt>
      <trkpt lat="49.63685" lon="4.95382">
        <ele>285.17</ele>
        <time>2020-09-07T12:17:18Z</time>
      </trkpt>
      <trkpt lat="49.63662" lon="4.95359">
        <ele>284.69</ele>
        <time>2020-09-07T12:17:43Z</time>
      </trkpt>
      <trkpt lat="49.63644" lon="4.95339">
        <ele>284.69</ele>
        <time>2020-09-07T12:18:03Z</time>
      </trkpt>
      <trkpt lat="49.63623" lon="4.95317">
        <ele>284.21</ele>
        <time>2020-09-07T12:18:26Z</time>
      </trkpt>
      <trkpt lat="49.63602" lon="4.95293">
        <ele>282.77</ele>
        <time>2020-09-07T12:18:50Z</time>
      </trkpt>
      <trkpt lat="49.63583" lon="4.95274">
        <ele>281.32</ele>
        <time>2020-09-07T12:19:11Z</time>
      </trkpt>
      <trkpt lat="49.6357" lon="4.95257">
        <ele>280.36</ele>
        <time>2020-09-07T12:19:28Z</time>
      </trkpt>
      <trkpt lat="49.63554" lon="4.9524">
        <ele>278.92</ele>
        <time>2020-09-07T12:19:48Z</time>
      </trkpt>
      <trkpt lat="49.6354" lon="4.95222">
        <ele>277.48</ele>
        <time>2020-09-07T12:20:06Z</time>
      </trkpt>
      <trkpt lat="49.63525" lon="4.95201">
        <ele>277</ele>
        <time>2020-09-07T12:20:26Z</time>
      </trkpt>
      <trkpt lat="49.63511" lon="4.95184">
        <ele>276.04</ele>
        <time>2020-09-07T12:20:43Z</time>
      </trkpt>
      <trkpt lat="49.63497" lon="4.95163">
        <ele>273.63</ele>
        <time>2020-09-07T12:21:03Z</time>
      </trkpt>
      <trkpt lat="49.63482" lon="4.95141">
        <ele>274.11</ele>
        <time>2020-09-07T12:21:23Z</time>
      </trkpt>
      <trkpt lat="49.63467" lon="4.95118">
        <ele>273.15</ele>
        <time>2020-09-07T12:21:43Z</time>
      </trkpt>
      <trkpt lat="49.63453" lon="4.95096">
        <ele>271.23</ele>
        <time>2020-09-07T12:22:02Z</time>
      </trkpt>
      <trkpt lat="49.63435" lon="4.95069">
        <ele>269.79</ele>
        <time>2020-09-07T12:22:26Z</time>
      </trkpt>
      <trkpt lat="49.63422" lon="4.95049">
        <ele>268.35</ele>
        <time>2020-09-07T12:22:46Z</time>
      </trkpt>
      <trkpt lat="49.63403" lon="4.95022">
        <ele>266.9</ele>
        <time>2020-09-07T12:23:09Z</time>
      </trkpt>
      <trkpt lat="49.63391" lon="4.95005">
        <ele>264.98</ele>
        <time>2020-09-07T12:23:28Z</time>
      </trkpt>
      <trkpt lat="49.63382" lon="4.94995">
        <ele>260.65</ele>
        <time>2020-09-07T12:23:42Z</time>
      </trkpt>
      <trkpt lat="49.63365" lon="4.94977">
        <ele>258.73</ele>
        <time>2020-09-07T12:24:02Z</time>
      </trkpt>
      <trkpt lat="49.63363" lon="4.94974">
        <ele>258.73</ele>
        <time>2020-09-07T12:24:05Z</time>
      </trkpt>
      <trkpt lat="49.63362" lon="4.94962">
        <ele>258.73</ele>
        <time>2020-09-07T12:24:14Z</time>
      </trkpt>
      <trkpt lat="49.63366" lon="4.94938">
        <ele>256.33</ele>
        <time>2020-09-07T12:24:30Z</time>
      </trkpt>
      <trkpt lat="49.63366" lon="4.94931">
        <ele>256.33</ele>
        <time>2020-09-07T12:24:33Z</time>
      </trkpt>
      <trkpt lat="49.63367" lon="4.94894">
        <ele>256.81</ele>
        <time>2020-09-07T12:24:53Z</time>
      </trkpt>
      <trkpt lat="49.63366" lon="4.94881">
        <ele>255.37</ele>
        <time>2020-09-07T12:25:02Z</time>
      </trkpt>
      <trkpt lat="49.6335" lon="4.94847">
        <ele>256.81</ele>
        <time>2020-09-07T12:25:25Z</time>
      </trkpt>
      <trkpt lat="49.63331" lon="4.94821">
        <ele>255.85</ele>
        <time>2020-09-07T12:25:47Z</time>
      </trkpt>
      <trkpt lat="49.63316" lon="4.94803">
        <ele>256.33</ele>
        <time>2020-09-07T12:26:04Z</time>
      </trkpt>
      <trkpt lat="49.63304" lon="4.94784">
        <ele>256.33</ele>
        <time>2020-09-07T12:26:20Z</time>
      </trkpt>
      <trkpt lat="49.63314" lon="4.94756">
        <ele>256.81</ele>
        <time>2020-09-07T12:26:41Z</time>
      </trkpt>
      <trkpt lat="49.63332" lon="4.94733">
        <ele>257.77</ele>
        <time>2020-09-07T12:27:02Z</time>
      </trkpt>
      <trkpt lat="49.6335" lon="4.9471">
        <ele>258.25</ele>
        <time>2020-09-07T12:27:24Z</time>
      </trkpt>
      <trkpt lat="49.6337" lon="4.94686">
        <ele>260.65</ele>
        <time>2020-09-07T12:27:46Z</time>
      </trkpt>
      <trkpt lat="49.63387" lon="4.94668">
        <ele>263.54</ele>
        <time>2020-09-07T12:28:05Z</time>
      </trkpt>
      <trkpt lat="49.63394" lon="4.94663">
        <ele>264.02</ele>
        <time>2020-09-07T12:28:12Z</time>
      </trkpt>
      <trkpt lat="49.63411" lon="4.94648">
        <ele>265.94</ele>
        <time>2020-09-07T12:28:31Z</time>
      </trkpt>
      <trkpt lat="49.63429" lon="4.94637">
        <ele>267.86</ele>
        <time>2020-09-07T12:28:51Z</time>
      </trkpt>
      <trkpt lat="49.63446" lon="4.94627">
        <ele>268.83</ele>
        <time>2020-09-07T12:29:09Z</time>
      </trkpt>
      <trkpt lat="49.63447" lon="4.94626">
        <ele>268.83</ele>
        <time>2020-09-07T12:29:10Z</time>
      </trkpt>
      <trkpt lat="49.63466" lon="4.94614">
        <ele>270.75</ele>
        <time>2020-09-07T12:29:29Z</time>
      </trkpt>
      <trkpt lat="49.6349" lon="4.94601">
        <ele>272.67</ele>
        <time>2020-09-07T12:29:52Z</time>
      </trkpt>
      <trkpt lat="49.63509" lon="4.94589">
        <ele>273.63</ele>
        <time>2020-09-07T12:30:11Z</time>
      </trkpt>
      <trkpt lat="49.63527" lon="4.94578">
        <ele>274.59</ele>
        <time>2020-09-07T12:30:28Z</time>
      </trkpt>
      <trkpt lat="49.63546" lon="4.94567">
        <ele>275.56</ele>
        <time>2020-09-07T12:30:48Z</time>
      </trkpt>
      <trkpt lat="49.6357" lon="4.94552">
        <ele>276.04</ele>
        <time>2020-09-07T12:31:12Z</time>
      </trkpt>
      <trkpt lat="49.63592" lon="4.9454">
        <ele>277.48</ele>
        <time>2020-09-07T12:31:34Z</time>
      </trkpt>
      <trkpt lat="49.63613" lon="4.94527">
        <ele>277.48</ele>
        <time>2020-09-07T12:31:56Z</time>
      </trkpt>
      <trkpt lat="49.63632" lon="4.94516">
        <ele>279.4</ele>
        <time>2020-09-07T12:32:16Z</time>
      </trkpt>
      <trkpt lat="49.63652" lon="4.94504">
        <ele>279.88</ele>
        <time>2020-09-07T12:32:36Z</time>
      </trkpt>
      <trkpt lat="49.6367" lon="4.94492">
        <ele>280.84</ele>
        <time>2020-09-07T12:32:54Z</time>
      </trkpt>
      <trkpt lat="49.63693" lon="4.94478">
        <ele>282.28</ele>
        <time>2020-09-07T12:33:16Z</time>
      </trkpt>
      <trkpt lat="49.63711" lon="4.94467">
        <ele>281.32</ele>
        <time>2020-09-07T12:33:34Z</time>
      </trkpt>
      <trkpt lat="49.63733" lon="4.94454">
        <ele>281.8</ele>
        <time>2020-09-07T12:33:56Z</time>
      </trkpt>
      <trkpt lat="49.63751" lon="4.94443">
        <ele>281.8</ele>
        <time>2020-09-07T12:34:14Z</time>
      </trkpt>
      <trkpt lat="49.6377" lon="4.94432">
        <ele>281.8</ele>
        <time>2020-09-07T12:34:33Z</time>
      </trkpt>
      <trkpt lat="49.63789" lon="4.94419">
        <ele>282.28</ele>
        <time>2020-09-07T12:34:53Z</time>
      </trkpt>
      <trkpt lat="49.63805" lon="4.9441">
        <ele>282.77</ele>
        <time>2020-09-07T12:35:09Z</time>
      </trkpt>
      <trkpt lat="49.63824" lon="4.94398">
        <ele>282.77</ele>
        <time>2020-09-07T12:35:29Z</time>
      </trkpt>
      <trkpt lat="49.63841" lon="4.94387">
        <ele>284.21</ele>
        <time>2020-09-07T12:35:47Z</time>
      </trkpt>
      <trkpt lat="49.6385" lon="4.94381">
        <ele>285.17</ele>
        <time>2020-09-07T12:36:00Z</time>
      </trkpt>
      <trkpt lat="49.63868" lon="4.94369">
        <ele>285.65</ele>
        <time>2020-09-07T12:36:18Z</time>
      </trkpt>
      <trkpt lat="49.63888" lon="4.94358">
        <ele>286.13</ele>
        <time>2020-09-07T12:36:37Z</time>
      </trkpt>
      <trkpt lat="49.63907" lon="4.94346">
        <ele>285.65</ele>
        <time>2020-09-07T12:36:57Z</time>
      </trkpt>
      <trkpt lat="49.63924" lon="4.94335">
        <ele>286.13</ele>
        <time>2020-09-07T12:37:15Z</time>
      </trkpt>
      <trkpt lat="49.63942" lon="4.94323">
        <ele>288.05</ele>
        <time>2020-09-07T12:37:33Z</time>
      </trkpt>
      <trkpt lat="49.63946" lon="4.94321">
        <ele>288.05</ele>
        <time>2020-09-07T12:37:37Z</time>
      </trkpt>
      <trkpt lat="49.63965" lon="4.94311">
        <ele>288.53</ele>
        <time>2020-09-07T12:37:55Z</time>
      </trkpt>
      <trkpt lat="49.63985" lon="4.94301">
        <ele>288.53</ele>
        <time>2020-09-07T12:38:16Z</time>
      </trkpt>
      <trkpt lat="49.64" lon="4.94291">
        <ele>288.53</ele>
        <time>2020-09-07T12:38:32Z</time>
      </trkpt>
      <trkpt lat="49.64003" lon="4.94291">
        <ele>288.53</ele>
        <time>2020-09-07T12:38:35Z</time>
      </trkpt>
      <trkpt lat="49.6402" lon="4.94279">
        <ele>289.01</ele>
        <time>2020-09-07T12:38:53Z</time>
      </trkpt>
      <trkpt lat="49.64037" lon="4.94271">
        <ele>290.46</ele>
        <time>2020-09-07T12:39:11Z</time>
      </trkpt>
      <trkpt lat="49.64047" lon="4.9429">
        <ele>287.57</ele>
        <time>2020-09-07T12:39:30Z</time>
      </trkpt>
      <trkpt lat="49.64053" lon="4.94316">
        <ele>285.17</ele>
        <time>2020-09-07T12:39:49Z</time>
      </trkpt>
      <trkpt lat="49.64057" lon="4.9434">
        <ele>282.28</ele>
        <time>2020-09-07T12:40:06Z</time>
      </trkpt>
      <trkpt lat="49.64061" lon="4.94364">
        <ele>281.32</ele>
        <time>2020-09-07T12:40:22Z</time>
      </trkpt>
      <trkpt lat="49.64064" lon="4.94392">
        <ele>279.4</ele>
        <time>2020-09-07T12:40:41Z</time>
      </trkpt>
      <trkpt lat="49.64066" lon="4.94417">
        <ele>277.96</ele>
        <time>2020-09-07T12:40:58Z</time>
      </trkpt>
      <trkpt lat="49.6407" lon="4.94441">
        <ele>278.92</ele>
        <time>2020-09-07T12:41:13Z</time>
      </trkpt>
      <trkpt lat="49.64072" lon="4.94475">
        <ele>280.84</ele>
        <time>2020-09-07T12:41:31Z</time>
      </trkpt>
      <trkpt lat="49.64072" lon="4.94479">
        <ele>281.32</ele>
        <time>2020-09-07T12:41:33Z</time>
      </trkpt>
      <trkpt lat="49.64076" lon="4.9451">
        <ele>282.28</ele>
        <time>2020-09-07T12:41:52Z</time>
      </trkpt>
      <trkpt lat="49.64079" lon="4.94539">
        <ele>282.28</ele>
        <time>2020-09-07T12:42:11Z</time>
      </trkpt>
      <trkpt lat="49.64081" lon="4.94562">
        <ele>281.8</ele>
        <time>2020-09-07T12:42:26Z</time>
      </trkpt>
      <trkpt lat="49.64083" lon="4.94592">
        <ele>282.28</ele>
        <time>2020-09-07T12:42:44Z</time>
      </trkpt>
      <trkpt lat="49.64086" lon="4.94622">
        <ele>281.32</ele>
        <time>2020-09-07T12:43:04Z</time>
      </trkpt>
      <trkpt lat="49.64086" lon="4.94624">
        <ele>281.32</ele>
        <time>2020-09-07T12:43:06Z</time>
      </trkpt>
      <trkpt lat="49.64088" lon="4.94649">
        <ele>278.92</ele>
        <time>2020-09-07T12:43:23Z</time>
      </trkpt>
      <trkpt lat="49.6409" lon="4.9467">
        <ele>277.48</ele>
        <time>2020-09-07T12:43:38Z</time>
      </trkpt>
      <trkpt lat="49.64094" lon="4.94697">
        <ele>275.07</ele>
        <time>2020-09-07T12:43:56Z</time>
      </trkpt>
      <trkpt lat="49.64099" lon="4.94728">
        <ele>277</ele>
        <time>2020-09-07T12:44:15Z</time>
      </trkpt>
      <trkpt lat="49.64102" lon="4.94756">
        <ele>277.96</ele>
        <time>2020-09-07T12:44:32Z</time>
      </trkpt>
      <trkpt lat="49.64108" lon="4.94784">
        <ele>278.92</ele>
        <time>2020-09-07T12:44:51Z</time>
      </trkpt>
      <trkpt lat="49.64114" lon="4.94812">
        <ele>277.96</ele>
        <time>2020-09-07T12:45:09Z</time>
      </trkpt>
      <trkpt lat="49.6412" lon="4.94839">
        <ele>277.48</ele>
        <time>2020-09-07T12:45:25Z</time>
      </trkpt>
      <trkpt lat="49.64125" lon="4.94873">
        <ele>278.92</ele>
        <time>2020-09-07T12:45:42Z</time>
      </trkpt>
      <trkpt lat="49.64133" lon="4.94902">
        <ele>280.36</ele>
        <time>2020-09-07T12:46:01Z</time>
      </trkpt>
      <trkpt lat="49.64139" lon="4.94936">
        <ele>280.36</ele>
        <time>2020-09-07T12:46:22Z</time>
      </trkpt>
      <trkpt lat="49.64142" lon="4.9495">
        <ele>281.32</ele>
        <time>2020-09-07T12:46:40Z</time>
      </trkpt>
      <trkpt lat="49.64147" lon="4.94978">
        <ele>279.4</ele>
        <time>2020-09-07T12:46:58Z</time>
      </trkpt>
      <trkpt lat="49.64153" lon="4.95007">
        <ele>281.32</ele>
        <time>2020-09-07T12:47:13Z</time>
      </trkpt>
      <trkpt lat="49.64158" lon="4.95039">
        <ele>284.69</ele>
        <time>2020-09-07T12:47:31Z</time>
      </trkpt>
      <trkpt lat="49.64163" lon="4.95069">
        <ele>284.69</ele>
        <time>2020-09-07T12:47:51Z</time>
      </trkpt>
      <trkpt lat="49.64168" lon="4.95101">
        <ele>284.21</ele>
        <time>2020-09-07T12:48:09Z</time>
      </trkpt>
      <trkpt lat="49.64173" lon="4.95127">
        <ele>282.77</ele>
        <time>2020-09-07T12:48:26Z</time>
      </trkpt>
      <trkpt lat="49.64181" lon="4.95154">
        <ele>280.84</ele>
        <time>2020-09-07T12:48:43Z</time>
      </trkpt>
      <trkpt lat="49.64188" lon="4.9518">
        <ele>275.56</ele>
        <time>2020-09-07T12:49:01Z</time>
      </trkpt>
      <trkpt lat="49.64195" lon="4.95204">
        <ele>269.79</ele>
        <time>2020-09-07T12:49:18Z</time>
      </trkpt>
      <trkpt lat="49.64204" lon="4.95232">
        <ele>266.9</ele>
        <time>2020-09-07T12:49:37Z</time>
      </trkpt>
      <trkpt lat="49.64216" lon="4.95256">
        <ele>267.38</ele>
        <time>2020-09-07T12:49:55Z</time>
      </trkpt>
      <trkpt lat="49.64229" lon="4.95276">
        <ele>268.35</ele>
        <time>2020-09-07T12:50:13Z</time>
      </trkpt>
      <trkpt lat="49.64242" lon="4.95308">
        <ele>270.27</ele>
        <time>2020-09-07T12:50:35Z</time>
      </trkpt>
      <trkpt lat="49.64251" lon="4.9535">
        <ele>285.17</ele>
        <time>2020-09-07T12:50:57Z</time>
      </trkpt>
      <trkpt lat="49.64258" lon="4.95384">
        <ele>294.78</ele>
        <time>2020-09-07T12:51:16Z</time>
      </trkpt>
      <trkpt lat="49.64263" lon="4.95404">
        <ele>293.34</ele>
        <time>2020-09-07T12:51:34Z</time>
      </trkpt>
      <trkpt lat="49.64269" lon="4.95437">
        <ele>292.86</ele>
        <time>2020-09-07T12:51:53Z</time>
      </trkpt>
      <trkpt lat="49.64273" lon="4.9546">
        <ele>295.26</ele>
        <time>2020-09-07T12:52:11Z</time>
      </trkpt>
      <trkpt lat="49.64278" lon="4.95484">
        <ele>293.82</ele>
        <time>2020-09-07T12:52:30Z</time>
      </trkpt>
      <trkpt lat="49.64285" lon="4.95509">
        <ele>290.94</ele>
        <time>2020-09-07T12:52:48Z</time>
      </trkpt>
      <trkpt lat="49.64291" lon="4.95531">
        <ele>289.97</ele>
        <time>2020-09-07T12:53:05Z</time>
      </trkpt>
      <trkpt lat="49.64297" lon="4.95557">
        <ele>290.94</ele>
        <time>2020-09-07T12:53:23Z</time>
      </trkpt>
      <trkpt lat="49.64305" lon="4.95585">
        <ele>290.46</ele>
        <time>2020-09-07T12:53:43Z</time>
      </trkpt>
      <trkpt lat="49.64312" lon="4.95602">
        <ele>293.82</ele>
        <time>2020-09-07T12:53:59Z</time>
      </trkpt>
      <trkpt lat="49.64321" lon="4.95622">
        <ele>293.82</ele>
        <time>2020-09-07T12:54:15Z</time>
      </trkpt>
      <trkpt lat="49.64333" lon="4.95642">
        <ele>294.3</ele>
        <time>2020-09-07T12:54:31Z</time>
      </trkpt>
      <trkpt lat="49.64337" lon="4.95659">
        <ele>298.15</ele>
        <time>2020-09-07T12:54:46Z</time>
      </trkpt>
      <trkpt lat="49.6434" lon="4.95663">
        <ele>298.15</ele>
        <time>2020-09-07T12:55:01Z</time>
      </trkpt>
      <trkpt lat="49.64346" lon="4.9567">
        <ele>297.18</ele>
        <time>2020-09-07T12:55:20Z</time>
      </trkpt>
      <trkpt lat="49.6436" lon="4.95698">
        <ele>295.74</ele>
        <time>2020-09-07T12:55:40Z</time>
      </trkpt>
      <trkpt lat="49.64373" lon="4.95721">
        <ele>296.22</ele>
        <time>2020-09-07T12:55:56Z</time>
      </trkpt>
      <trkpt lat="49.64385" lon="4.95743">
        <ele>292.38</ele>
        <time>2020-09-07T12:56:17Z</time>
      </trkpt>
      <trkpt lat="49.64396" lon="4.95772">
        <ele>293.34</ele>
        <time>2020-09-07T12:56:33Z</time>
      </trkpt>
      <trkpt lat="49.64406" lon="4.95794">
        <ele>292.86</ele>
        <time>2020-09-07T12:56:50Z</time>
      </trkpt>
      <trkpt lat="49.64415" lon="4.95821">
        <ele>295.74</ele>
        <time>2020-09-07T12:57:09Z</time>
      </trkpt>
      <trkpt lat="49.64419" lon="4.95834">
        <ele>297.18</ele>
        <time>2020-09-07T12:57:29Z</time>
      </trkpt>
      <trkpt lat="49.64425" lon="4.9586">
        <ele>296.7</ele>
        <time>2020-09-07T12:57:49Z</time>
      </trkpt>
      <trkpt lat="49.64435" lon="4.95889">
        <ele>291.42</ele>
        <time>2020-09-07T12:58:07Z</time>
      </trkpt>
      <trkpt lat="49.64445" lon="4.95908">
        <ele>288.05</ele>
        <time>2020-09-07T12:58:26Z</time>
      </trkpt>
      <trkpt lat="49.64452" lon="4.95938">
        <ele>291.42</ele>
        <time>2020-09-07T12:58:42Z</time>
      </trkpt>
      <trkpt lat="49.64462" lon="4.95958">
        <ele>289.97</ele>
        <time>2020-09-07T12:58:58Z</time>
      </trkpt>
      <trkpt lat="49.64471" lon="4.95975">
        <ele>287.09</ele>
        <time>2020-09-07T12:59:13Z</time>
      </trkpt>
      <trkpt lat="49.64481" lon="4.95993">
        <ele>285.17</ele>
        <time>2020-09-07T12:59:31Z</time>
      </trkpt>
      <trkpt lat="49.64491" lon="4.96013">
        <ele>285.17</ele>
        <time>2020-09-07T12:59:47Z</time>
      </trkpt>
      <trkpt lat="49.64499" lon="4.9603">
        <ele>287.57</ele>
        <time>2020-09-07T13:00:01Z</time>
      </trkpt>
      <trkpt lat="49.64501" lon="4.9603">
        <ele>291.9</ele>
        <time>2020-09-07T13:00:17Z</time>
      </trkpt>
      <trkpt lat="49.64504" lon="4.96035">
        <ele>292.86</ele>
        <time>2020-09-07T13:00:34Z</time>
      </trkpt>
      <trkpt lat="49.64506" lon="4.96036">
        <ele>292.86</ele>
        <time>2020-09-07T13:00:55Z</time>
      </trkpt>
      <trkpt lat="49.64507" lon="4.96035">
        <ele>292.86</ele>
        <time>2020-09-07T13:01:17Z</time>
      </trkpt>
      <trkpt lat="49.6452" lon="4.96036">
        <ele>290.94</ele>
        <time>2020-09-07T13:01:37Z</time>
      </trkpt>
      <trkpt lat="49.64532" lon="4.96034">
        <ele>289.01</ele>
        <time>2020-09-07T13:01:53Z</time>
      </trkpt>
      <trkpt lat="49.64547" lon="4.96032">
        <ele>288.53</ele>
        <time>2020-09-07T13:02:10Z</time>
      </trkpt>
      <trkpt lat="49.64565" lon="4.9603">
        <ele>287.57</ele>
        <time>2020-09-07T13:02:32Z</time>
      </trkpt>
      <trkpt lat="49.64579" lon="4.96029">
        <ele>286.61</ele>
        <time>2020-09-07T13:02:50Z</time>
      </trkpt>
      <trkpt lat="49.64589" lon="4.96031">
        <ele>284.21</ele>
        <time>2020-09-07T13:03:09Z</time>
      </trkpt>
      <trkpt lat="49.64599" lon="4.96033">
        <ele>281.32</ele>
        <time>2020-09-07T13:03:28Z</time>
      </trkpt>
      <trkpt lat="49.64613" lon="4.96036">
        <ele>275.07</ele>
        <time>2020-09-07T13:03:46Z</time>
      </trkpt>
      <trkpt lat="49.64626" lon="4.96036">
        <ele>270.75</ele>
        <time>2020-09-07T13:04:06Z</time>
      </trkpt>
      <trkpt lat="49.64637" lon="4.9604">
        <ele>270.75</ele>
        <time>2020-09-07T13:04:25Z</time>
      </trkpt>
      <trkpt lat="49.64655" lon="4.96048">
        <ele>266.42</ele>
        <time>2020-09-07T13:04:43Z</time>
      </trkpt>
      <trkpt lat="49.6467" lon="4.96057">
        <ele>265.94</ele>
        <time>2020-09-07T13:05:00Z</time>
      </trkpt>
      <trkpt lat="49.64694" lon="4.96071">
        <ele>264.02</ele>
        <time>2020-09-07T13:05:16Z</time>
      </trkpt>
      <trkpt lat="49.6472" lon="4.96089">
        <ele>264.02</ele>
        <time>2020-09-07T13:05:36Z</time>
      </trkpt>
      <trkpt lat="49.64738" lon="4.96102">
        <ele>265.94</ele>
        <time>2020-09-07T13:05:54Z</time>
      </trkpt>
      <trkpt lat="49.64756" lon="4.96113">
        <ele>267.86</ele>
        <time>2020-09-07T13:06:12Z</time>
      </trkpt>
      <trkpt lat="49.64772" lon="4.96124">
        <ele>268.83</ele>
        <time>2020-09-07T13:06:33Z</time>
      </trkpt>
      <trkpt lat="49.64782" lon="4.96131">
        <ele>268.35</ele>
        <time>2020-09-07T13:06:52Z</time>
      </trkpt>
      <trkpt lat="49.64801" lon="4.96143">
        <ele>266.9</ele>
        <time>2020-09-07T13:07:13Z</time>
      </trkpt>
      <trkpt lat="49.6481" lon="4.96151">
        <ele>264.98</ele>
        <time>2020-09-07T13:07:32Z</time>
      </trkpt>
      <trkpt lat="49.64821" lon="4.96159">
        <ele>264.5</ele>
        <time>2020-09-07T13:07:54Z</time>
      </trkpt>
      <trkpt lat="49.64853" lon="4.96187">
        <ele>265.94</ele>
        <time>2020-09-07T13:08:13Z</time>
      </trkpt>
      <trkpt lat="49.64883" lon="4.9621">
        <ele>270.75</ele>
        <time>2020-09-07T13:08:34Z</time>
      </trkpt>
      <trkpt lat="49.64897" lon="4.96221">
        <ele>270.75</ele>
        <time>2020-09-07T13:08:53Z</time>
      </trkpt>
      <trkpt lat="49.64911" lon="4.96236">
        <ele>270.27</ele>
        <time>2020-09-07T13:09:10Z</time>
      </trkpt>
      <trkpt lat="49.64925" lon="4.96249">
        <ele>271.71</ele>
        <time>2020-09-07T13:09:29Z</time>
      </trkpt>
      <trkpt lat="49.64948" lon="4.96269">
        <ele>273.15</ele>
        <time>2020-09-07T13:09:48Z</time>
      </trkpt>
      <trkpt lat="49.64967" lon="4.96284">
        <ele>276.52</ele>
        <time>2020-09-07T13:10:07Z</time>
      </trkpt>
      <trkpt lat="49.64988" lon="4.96297">
        <ele>278.92</ele>
        <time>2020-09-07T13:10:27Z</time>
      </trkpt>
      <trkpt lat="49.65011" lon="4.96312">
        <ele>283.25</ele>
        <time>2020-09-07T13:10:46Z</time>
      </trkpt>
      <trkpt lat="49.65021" lon="4.96318">
        <ele>280.84</ele>
        <time>2020-09-07T13:11:06Z</time>
      </trkpt>
      <trkpt lat="49.65039" lon="4.96326">
        <ele>279.88</ele>
        <time>2020-09-07T13:11:24Z</time>
      </trkpt>
      <trkpt lat="49.65049" lon="4.96331">
        <ele>279.88</ele>
        <time>2020-09-07T13:11:44Z</time>
      </trkpt>
      <trkpt lat="49.65057" lon="4.96336">
        <ele>278.44</ele>
        <time>2020-09-07T13:12:02Z</time>
      </trkpt>
      <trkpt lat="49.65066" lon="4.96342">
        <ele>276.04</ele>
        <time>2020-09-07T13:12:19Z</time>
      </trkpt>
      <trkpt lat="49.65078" lon="4.96347">
        <ele>278.92</ele>
        <time>2020-09-07T13:12:38Z</time>
      </trkpt>
      <trkpt lat="49.65092" lon="4.96351">
        <ele>282.77</ele>
        <time>2020-09-07T13:13:02Z</time>
      </trkpt>
      <trkpt lat="49.65096" lon="4.96354">
        <ele>284.21</ele>
        <time>2020-09-07T13:13:18Z</time>
      </trkpt>
      <trkpt lat="49.65096" lon="4.96355">
        <ele>284.21</ele>
        <time>2020-09-07T13:13:37Z</time>
      </trkpt>
      <trkpt lat="49.65095" lon="4.96357">
        <ele>284.21</ele>
        <time>2020-09-07T13:14:02Z</time>
      </trkpt>
      <trkpt lat="49.65095" lon="4.96357">
        <ele>283.73</ele>
        <time>2020-09-07T13:14:29Z</time>
      </trkpt>
      <trkpt lat="49.65095" lon="4.96357">
        <ele>284.21</ele>
        <time>2020-09-07T13:14:52Z</time>
      </trkpt>
      <trkpt lat="49.65095" lon="4.96357">
        <ele>283.73</ele>
        <time>2020-09-07T13:15:21Z</time>
      </trkpt>
      <trkpt lat="49.65095" lon="4.96357">
        <ele>283.73</ele>
        <time>2020-09-07T13:15:42Z</time>
      </trkpt>
      <trkpt lat="49.65094" lon="4.96357">
        <ele>283.73</ele>
        <time>2020-09-07T13:16:07Z</time>
      </trkpt>
      <trkpt lat="49.65094" lon="4.96356">
        <ele>283.73</ele>
        <time>2020-09-07T13:16:31Z</time>
      </trkpt>
      <trkpt lat="49.65094" lon="4.96356">
        <ele>283.73</ele>
        <time>2020-09-07T13:17:02Z</time>
      </trkpt>
      <trkpt lat="49.65094" lon="4.96356">
        <ele>283.73</ele>
        <time>2020-09-07T13:17:31Z</time>
      </trkpt>
      <trkpt lat="49.65094" lon="4.96357">
        <ele>283.73</ele>
        <time>2020-09-07T13:17:52Z</time>
      </trkpt>
      <trkpt lat="49.65094" lon="4.96357">
        <ele>283.73</ele>
        <time>2020-09-07T13:18:17Z</time>
      </trkpt>
      <trkpt lat="49.65093" lon="4.9636">
        <ele>283.73</ele>
        <time>2020-09-07T13:18:38Z</time>
      </trkpt>
      <trkpt lat="49.65086" lon="4.96365">
        <ele>284.21</ele>
        <time>2020-09-07T13:18:55Z</time>
      </trkpt>
      <trkpt lat="49.65083" lon="4.96367">
        <ele>284.21</ele>
        <time>2020-09-07T13:18:58Z</time>
      </trkpt>
      <trkpt lat="49.65067" lon="4.96377">
        <ele>282.77</ele>
        <time>2020-09-07T13:19:16Z</time>
      </trkpt>
      <trkpt lat="49.65058" lon="4.96386">
        <ele>282.28</ele>
        <time>2020-09-07T13:19:30Z</time>
      </trkpt>
      <trkpt lat="49.65046" lon="4.96402">
        <ele>282.77</ele>
        <time>2020-09-07T13:19:46Z</time>
      </trkpt>
      <trkpt lat="49.65031" lon="4.96416">
        <ele>285.65</ele>
        <time>2020-09-07T13:20:03Z</time>
      </trkpt>
      <trkpt lat="49.65017" lon="4.96428">
        <ele>286.13</ele>
        <time>2020-09-07T13:20:20Z</time>
      </trkpt>
      <trkpt lat="49.65003" lon="4.96438">
        <ele>287.09</ele>
        <time>2020-09-07T13:20:38Z</time>
      </trkpt>
      <trkpt lat="49.6499" lon="4.96452">
        <ele>285.17</ele>
        <time>2020-09-07T13:20:55Z</time>
      </trkpt>
      <trkpt lat="49.64979" lon="4.96464">
        <ele>280.84</ele>
        <time>2020-09-07T13:21:11Z</time>
      </trkpt>
      <trkpt lat="49.64967" lon="4.9648">
        <ele>279.4</ele>
        <time>2020-09-07T13:21:29Z</time>
      </trkpt>
      <trkpt lat="49.64955" lon="4.96496">
        <ele>280.36</ele>
        <time>2020-09-07T13:21:43Z</time>
      </trkpt>
      <trkpt lat="49.64946" lon="4.96512">
        <ele>282.28</ele>
        <time>2020-09-07T13:21:58Z</time>
      </trkpt>
      <trkpt lat="49.64933" lon="4.96529">
        <ele>283.25</ele>
        <time>2020-09-07T13:22:15Z</time>
      </trkpt>
      <trkpt lat="49.64916" lon="4.9654">
        <ele>284.21</ele>
        <time>2020-09-07T13:22:34Z</time>
      </trkpt>
      <trkpt lat="49.64902" lon="4.96544">
        <ele>282.28</ele>
        <time>2020-09-07T13:22:50Z</time>
      </trkpt>
      <trkpt lat="49.649" lon="4.96545">
        <ele>282.28</ele>
        <time>2020-09-07T13:22:52Z</time>
      </trkpt>
      <trkpt lat="49.64884" lon="4.96561">
        <ele>280.84</ele>
        <time>2020-09-07T13:23:12Z</time>
      </trkpt>
      <trkpt lat="49.6487" lon="4.96574">
        <ele>279.88</ele>
        <time>2020-09-07T13:23:29Z</time>
      </trkpt>
      <trkpt lat="49.64851" lon="4.96584">
        <ele>276.52</ele>
        <time>2020-09-07T13:23:49Z</time>
      </trkpt>
      <trkpt lat="49.64834" lon="4.9659">
        <ele>275.07</ele>
        <time>2020-09-07T13:24:06Z</time>
      </trkpt>
      <trkpt lat="49.6482" lon="4.96596">
        <ele>273.63</ele>
        <time>2020-09-07T13:24:22Z</time>
      </trkpt>
      <trkpt lat="49.64803" lon="4.96602">
        <ele>272.67</ele>
        <time>2020-09-07T13:24:40Z</time>
      </trkpt>
      <trkpt lat="49.64785" lon="4.96611">
        <ele>270.27</ele>
        <time>2020-09-07T13:24:59Z</time>
      </trkpt>
      <trkpt lat="49.64766" lon="4.96621">
        <ele>270.75</ele>
        <time>2020-09-07T13:25:20Z</time>
      </trkpt>
      <trkpt lat="49.64746" lon="4.96631">
        <ele>267.38</ele>
        <time>2020-09-07T13:25:40Z</time>
      </trkpt>
      <trkpt lat="49.64727" lon="4.96641">
        <ele>265.46</ele>
        <time>2020-09-07T13:26:00Z</time>
      </trkpt>
      <trkpt lat="49.64714" lon="4.96646">
        <ele>266.9</ele>
        <time>2020-09-07T13:26:16Z</time>
      </trkpt>
      <trkpt lat="49.64701" lon="4.96651">
        <ele>265.94</ele>
        <time>2020-09-07T13:26:32Z</time>
      </trkpt>
      <trkpt lat="49.64696" lon="4.96654">
        <ele>265.94</ele>
        <time>2020-09-07T13:26:37Z</time>
      </trkpt>
      <trkpt lat="49.64682" lon="4.96655">
        <ele>262.58</ele>
        <time>2020-09-07T13:26:54Z</time>
      </trkpt>
      <trkpt lat="49.64669" lon="4.96662">
        <ele>260.17</ele>
        <time>2020-09-07T13:27:11Z</time>
      </trkpt>
      <trkpt lat="49.64664" lon="4.96671">
        <ele>258.73</ele>
        <time>2020-09-07T13:27:21Z</time>
      </trkpt>
      <trkpt lat="49.64666" lon="4.96698">
        <ele>256.33</ele>
        <time>2020-09-07T13:27:38Z</time>
      </trkpt>
      <trkpt lat="49.64671" lon="4.96724">
        <ele>253.93</ele>
        <time>2020-09-07T13:27:53Z</time>
      </trkpt>
      <trkpt lat="49.64675" lon="4.96747">
        <ele>253.93</ele>
        <time>2020-09-07T13:28:08Z</time>
      </trkpt>
      <trkpt lat="49.64679" lon="4.96765">
        <ele>251.52</ele>
        <time>2020-09-07T13:28:23Z</time>
      </trkpt>
      <trkpt lat="49.64685" lon="4.96787">
        <ele>251.04</ele>
        <time>2020-09-07T13:28:38Z</time>
      </trkpt>
      <trkpt lat="49.64687" lon="4.96794">
        <ele>250.08</ele>
        <time>2020-09-07T13:28:44Z</time>
      </trkpt>
      <trkpt lat="49.64692" lon="4.96818">
        <ele>250.08</ele>
        <time>2020-09-07T13:28:59Z</time>
      </trkpt>
      <trkpt lat="49.64697" lon="4.96839">
        <ele>252.48</ele>
        <time>2020-09-07T13:29:15Z</time>
      </trkpt>
      <trkpt lat="49.64702" lon="4.96863">
        <ele>253.44</ele>
        <time>2020-09-07T13:29:30Z</time>
      </trkpt>
      <trkpt lat="49.64708" lon="4.96892">
        <ele>255.85</ele>
        <time>2020-09-07T13:29:47Z</time>
      </trkpt>
      <trkpt lat="49.64714" lon="4.9692">
        <ele>256.33</ele>
        <time>2020-09-07T13:30:04Z</time>
      </trkpt>
      <trkpt lat="49.64722" lon="4.96943">
        <ele>253.44</ele>
        <time>2020-09-07T13:30:21Z</time>
      </trkpt>
      <trkpt lat="49.64731" lon="4.96967">
        <ele>253.44</ele>
        <time>2020-09-07T13:30:38Z</time>
      </trkpt>
      <trkpt lat="49.64736" lon="4.96996">
        <ele>253.44</ele>
        <time>2020-09-07T13:30:58Z</time>
      </trkpt>
      <trkpt lat="49.6474" lon="4.97022">
        <ele>252.48</ele>
        <time>2020-09-07T13:31:16Z</time>
      </trkpt>
      <trkpt lat="49.64742" lon="4.97056">
        <ele>251.52</ele>
        <time>2020-09-07T13:31:36Z</time>
      </trkpt>
      <trkpt lat="49.64743" lon="4.97082">
        <ele>250.56</ele>
        <time>2020-09-07T13:31:53Z</time>
      </trkpt>
      <trkpt lat="49.6474" lon="4.97112">
        <ele>249.6</ele>
        <time>2020-09-07T13:32:11Z</time>
      </trkpt>
      <trkpt lat="49.64739" lon="4.97141">
        <ele>248.16</ele>
        <time>2020-09-07T13:32:30Z</time>
      </trkpt>
      <trkpt lat="49.64737" lon="4.97171">
        <ele>247.2</ele>
        <time>2020-09-07T13:32:49Z</time>
      </trkpt>
      <trkpt lat="49.64736" lon="4.97197">
        <ele>244.79</ele>
        <time>2020-09-07T13:33:07Z</time>
      </trkpt>
      <trkpt lat="49.64735" lon="4.97225">
        <ele>244.31</ele>
        <time>2020-09-07T13:33:25Z</time>
      </trkpt>
      <trkpt lat="49.64736" lon="4.97242">
        <ele>243.83</ele>
        <time>2020-09-07T13:33:38Z</time>
      </trkpt>
      <trkpt lat="49.64754" lon="4.97266">
        <ele>242.39</ele>
        <time>2020-09-07T13:34:00Z</time>
      </trkpt>
      <trkpt lat="49.64765" lon="4.97279">
        <ele>239.99</ele>
        <time>2020-09-07T13:34:14Z</time>
      </trkpt>
      <trkpt lat="49.64777" lon="4.97295">
        <ele>238.54</ele>
        <time>2020-09-07T13:34:31Z</time>
      </trkpt>
      <trkpt lat="49.64795" lon="4.97315">
        <ele>235.66</ele>
        <time>2020-09-07T13:34:52Z</time>
      </trkpt>
      <trkpt lat="49.64802" lon="4.97322">
        <ele>237.1</ele>
        <time>2020-09-07T13:35:00Z</time>
      </trkpt>
      <trkpt lat="49.64817" lon="4.97338">
        <ele>237.1</ele>
        <time>2020-09-07T13:35:18Z</time>
      </trkpt>
      <trkpt lat="49.64826" lon="4.97346">
        <ele>235.66</ele>
        <time>2020-09-07T13:35:28Z</time>
      </trkpt>
      <trkpt lat="49.64838" lon="4.97357">
        <ele>234.22</ele>
        <time>2020-09-07T13:35:42Z</time>
      </trkpt>
      <trkpt lat="49.64855" lon="4.97372">
        <ele>232.78</ele>
        <time>2020-09-07T13:36:02Z</time>
      </trkpt>
      <trkpt lat="49.64871" lon="4.97388">
        <ele>232.3</ele>
        <time>2020-09-07T13:36:22Z</time>
      </trkpt>
      <trkpt lat="49.64886" lon="4.97406">
        <ele>230.37</ele>
        <time>2020-09-07T13:36:41Z</time>
      </trkpt>
      <trkpt lat="49.649" lon="4.97424">
        <ele>228.45</ele>
        <time>2020-09-07T13:37:00Z</time>
      </trkpt>
      <trkpt lat="49.64912" lon="4.97443">
        <ele>227.01</ele>
        <time>2020-09-07T13:37:17Z</time>
      </trkpt>
      <trkpt lat="49.64925" lon="4.97466">
        <ele>225.57</ele>
        <time>2020-09-07T13:37:37Z</time>
      </trkpt>
      <trkpt lat="49.64936" lon="4.97491">
        <ele>225.09</ele>
        <time>2020-09-07T13:37:57Z</time>
      </trkpt>
      <trkpt lat="49.64945" lon="4.97517">
        <ele>224.12</ele>
        <time>2020-09-07T13:38:17Z</time>
      </trkpt>
      <trkpt lat="49.64947" lon="4.97544">
        <ele>221.72</ele>
        <time>2020-09-07T13:38:35Z</time>
      </trkpt>
      <trkpt lat="49.64946" lon="4.97566">
        <ele>220.28</ele>
        <time>2020-09-07T13:38:50Z</time>
      </trkpt>
      <trkpt lat="49.64947" lon="4.97588">
        <ele>219.32</ele>
        <time>2020-09-07T13:39:05Z</time>
      </trkpt>
      <trkpt lat="49.64939" lon="4.97611">
        <ele>218.84</ele>
        <time>2020-09-07T13:39:24Z</time>
      </trkpt>
      <trkpt lat="49.64933" lon="4.97632">
        <ele>218.36</ele>
        <time>2020-09-07T13:39:42Z</time>
      </trkpt>
      <trkpt lat="49.64926" lon="4.97655">
        <ele>215.47</ele>
        <time>2020-09-07T13:40:01Z</time>
      </trkpt>
      <trkpt lat="49.64918" lon="4.97677">
        <ele>213.07</ele>
        <time>2020-09-07T13:40:20Z</time>
      </trkpt>
      <trkpt lat="49.6491" lon="4.97695">
        <ele>210.67</ele>
        <time>2020-09-07T13:40:37Z</time>
      </trkpt>
      <trkpt lat="49.64903" lon="4.97718">
        <ele>207.78</ele>
        <time>2020-09-07T13:40:55Z</time>
      </trkpt>
      <trkpt lat="49.64899" lon="4.97745">
        <ele>205.38</ele>
        <time>2020-09-07T13:41:13Z</time>
      </trkpt>
      <trkpt lat="49.649" lon="4.97771">
        <ele>202.98</ele>
        <time>2020-09-07T13:41:32Z</time>
      </trkpt>
      <trkpt lat="49.64899" lon="4.97802">
        <ele>200.57</ele>
        <time>2020-09-07T13:41:52Z</time>
      </trkpt>
      <trkpt lat="49.649" lon="4.97827">
        <ele>198.65</ele>
        <time>2020-09-07T13:42:10Z</time>
      </trkpt>
      <trkpt lat="49.649" lon="4.97834">
        <ele>198.65</ele>
        <time>2020-09-07T13:42:14Z</time>
      </trkpt>
      <trkpt lat="49.64901" lon="4.97858">
        <ele>199.13</ele>
        <time>2020-09-07T13:42:31Z</time>
      </trkpt>
      <trkpt lat="49.64901" lon="4.97882">
        <ele>196.73</ele>
        <time>2020-09-07T13:42:48Z</time>
      </trkpt>
      <trkpt lat="49.64902" lon="4.9791">
        <ele>194.32</ele>
        <time>2020-09-07T13:43:06Z</time>
      </trkpt>
      <trkpt lat="49.64907" lon="4.97936">
        <ele>194.32</ele>
        <time>2020-09-07T13:43:25Z</time>
      </trkpt>
      <trkpt lat="49.64912" lon="4.97958">
        <ele>192.88</ele>
        <time>2020-09-07T13:43:41Z</time>
      </trkpt>
      <trkpt lat="49.6492" lon="4.97984">
        <ele>190.96</ele>
        <time>2020-09-07T13:44:01Z</time>
      </trkpt>
      <trkpt lat="49.64928" lon="4.98013">
        <ele>189.52</ele>
        <time>2020-09-07T13:44:22Z</time>
      </trkpt>
      <trkpt lat="49.64935" lon="4.98042">
        <ele>190</ele>
        <time>2020-09-07T13:44:41Z</time>
      </trkpt>
      <trkpt lat="49.64942" lon="4.98071">
        <ele>188.56</ele>
        <time>2020-09-07T13:45:02Z</time>
      </trkpt>
      <trkpt lat="49.64949" lon="4.98099">
        <ele>187.59</ele>
        <time>2020-09-07T13:45:21Z</time>
      </trkpt>
      <trkpt lat="49.64951" lon="4.98114">
        <ele>185.67</ele>
        <time>2020-09-07T13:45:32Z</time>
      </trkpt>
      <trkpt lat="49.64954" lon="4.98147">
        <ele>183.27</ele>
        <time>2020-09-07T13:45:54Z</time>
      </trkpt>
      <trkpt lat="49.64956" lon="4.98173">
        <ele>182.79</ele>
        <time>2020-09-07T13:46:10Z</time>
      </trkpt>
      <trkpt lat="49.64959" lon="4.98205">
        <ele>180.87</ele>
        <time>2020-09-07T13:46:30Z</time>
      </trkpt>
      <trkpt lat="49.6496" lon="4.98234">
        <ele>178.94</ele>
        <time>2020-09-07T13:46:48Z</time>
      </trkpt>
      <trkpt lat="49.64955" lon="4.98266">
        <ele>177.5</ele>
        <time>2020-09-07T13:47:08Z</time>
      </trkpt>
      <trkpt lat="49.64949" lon="4.98292">
        <ele>176.06</ele>
        <time>2020-09-07T13:47:27Z</time>
      </trkpt>
      <trkpt lat="49.64943" lon="4.98322">
        <ele>175.58</ele>
        <time>2020-09-07T13:47:47Z</time>
      </trkpt>
      <trkpt lat="49.64936" lon="4.98351">
        <ele>174.14</ele>
        <time>2020-09-07T13:48:07Z</time>
      </trkpt>
      <trkpt lat="49.64928" lon="4.98378">
        <ele>172.21</ele>
        <time>2020-09-07T13:48:25Z</time>
      </trkpt>
      <trkpt lat="49.6492" lon="4.98402">
        <ele>171.73</ele>
        <time>2020-09-07T13:48:43Z</time>
      </trkpt>
      <trkpt lat="49.6491" lon="4.98426">
        <ele>171.73</ele>
        <time>2020-09-07T13:49:01Z</time>
      </trkpt>
      <trkpt lat="49.64901" lon="4.98444">
        <ele>169.81</ele>
        <time>2020-09-07T13:49:16Z</time>
      </trkpt>
      <trkpt lat="49.64894" lon="4.98467">
        <ele>166.93</ele>
        <time>2020-09-07T13:49:33Z</time>
      </trkpt>
      <trkpt lat="49.64888" lon="4.98494">
        <ele>163.56</ele>
        <time>2020-09-07T13:49:52Z</time>
      </trkpt>
      <trkpt lat="49.64887" lon="4.985">
        <ele>163.56</ele>
        <time>2020-09-07T13:49:56Z</time>
      </trkpt>
      <trkpt lat="49.64883" lon="4.98533">
        <ele>162.12</ele>
        <time>2020-09-07T13:50:18Z</time>
      </trkpt>
      <trkpt lat="49.64879" lon="4.98563">
        <ele>161.16</ele>
        <time>2020-09-07T13:50:37Z</time>
      </trkpt>
      <trkpt lat="49.64878" lon="4.98592">
        <ele>159.72</ele>
        <time>2020-09-07T13:50:55Z</time>
      </trkpt>
      <trkpt lat="49.6488" lon="4.98608">
        <ele>160.2</ele>
        <time>2020-09-07T13:51:05Z</time>
      </trkpt>
      <trkpt lat="49.64887" lon="4.98629">
        <ele>159.72</ele>
        <time>2020-09-07T13:51:22Z</time>
      </trkpt>
      <trkpt lat="49.64888" lon="4.98631">
        <ele>159.24</ele>
        <time>2020-09-07T13:51:24Z</time>
      </trkpt>
      <trkpt lat="49.64891" lon="4.98635">
        <ele>159.24</ele>
        <time>2020-09-07T13:51:27Z</time>
      </trkpt>
      <trkpt lat="49.64905" lon="4.98654">
        <ele>159.72</ele>
        <time>2020-09-07T13:51:46Z</time>
      </trkpt>
      <trkpt lat="49.64912" lon="4.98671">
        <ele>159.24</ele>
        <time>2020-09-07T13:52:04Z</time>
      </trkpt>
      <trkpt lat="49.64912" lon="4.98671">
        <ele>159.24</ele>
        <time>2020-09-07T13:52:23Z</time>
      </trkpt>
      <trkpt lat="49.64912" lon="4.98672">
        <ele>158.27</ele>
        <time>2020-09-07T13:52:44Z</time>
      </trkpt>
      <trkpt lat="49.64898" lon="4.98665">
        <ele>157.79</ele>
        <time>2020-09-07T13:53:02Z</time>
      </trkpt>
      <trkpt lat="49.64881" lon="4.98652">
        <ele>157.31</ele>
        <time>2020-09-07T13:53:20Z</time>
      </trkpt>
      <trkpt lat="49.6486" lon="4.98638">
        <ele>156.83</ele>
        <time>2020-09-07T13:53:41Z</time>
      </trkpt>
      <trkpt lat="49.64841" lon="4.98625">
        <ele>153.95</ele>
        <time>2020-09-07T13:54:00Z</time>
      </trkpt>
      <trkpt lat="49.6482" lon="4.98612">
        <ele>155.87</ele>
        <time>2020-09-07T13:54:23Z</time>
      </trkpt>
      <trkpt lat="49.64802" lon="4.98602">
        <ele>156.35</ele>
        <time>2020-09-07T13:54:42Z</time>
      </trkpt>
      <trkpt lat="49.64786" lon="4.98592">
        <ele>155.87</ele>
        <time>2020-09-07T13:55:00Z</time>
      </trkpt>
      <trkpt lat="49.64778" lon="4.98588">
        <ele>157.79</ele>
        <time>2020-09-07T13:55:17Z</time>
      </trkpt>
      <trkpt lat="49.64761" lon="4.98578">
        <ele>155.39</ele>
        <time>2020-09-07T13:55:36Z</time>
      </trkpt>
      <trkpt lat="49.64739" lon="4.98567">
        <ele>152.51</ele>
        <time>2020-09-07T13:55:57Z</time>
      </trkpt>
      <trkpt lat="49.64718" lon="4.98556">
        <ele>154.91</ele>
        <time>2020-09-07T13:56:17Z</time>
      </trkpt>
      <trkpt lat="49.64699" lon="4.98545">
        <ele>153.95</ele>
        <time>2020-09-07T13:56:37Z</time>
      </trkpt>
      <trkpt lat="49.64683" lon="4.98535">
        <ele>152.99</ele>
        <time>2020-09-07T13:56:55Z</time>
      </trkpt>
      <trkpt lat="49.64666" lon="4.98524">
        <ele>152.51</ele>
        <time>2020-09-07T13:57:13Z</time>
      </trkpt>
      <trkpt lat="49.64649" lon="4.98516">
        <ele>152.99</ele>
        <time>2020-09-07T13:57:30Z</time>
      </trkpt>
      <trkpt lat="49.64633" lon="4.98507">
        <ele>153.47</ele>
        <time>2020-09-07T13:57:48Z</time>
      </trkpt>
      <trkpt lat="49.64616" lon="4.98498">
        <ele>156.83</ele>
        <time>2020-09-07T13:58:06Z</time>
      </trkpt>
      <trkpt lat="49.64599" lon="4.98489">
        <ele>162.12</ele>
        <time>2020-09-07T13:58:25Z</time>
      </trkpt>
      <trkpt lat="49.64596" lon="4.9849">
        <ele>161.16</ele>
        <time>2020-09-07T13:58:46Z</time>
      </trkpt>
      <trkpt lat="49.64597" lon="4.9849">
        <ele>160.2</ele>
        <time>2020-09-07T13:59:08Z</time>
      </trkpt>
      <trkpt lat="49.64596" lon="4.98489">
        <ele>160.68</ele>
        <time>2020-09-07T13:59:30Z</time>
      </trkpt>
      <trkpt lat="49.64595" lon="4.98489">
        <ele>161.16</ele>
        <time>2020-09-07T13:59:55Z</time>
      </trkpt>
      <trkpt lat="49.64595" lon="4.98487">
        <ele>160.68</ele>
        <time>2020-09-07T14:00:18Z</time>
      </trkpt>
      <trkpt lat="49.64595" lon="4.98487">
        <ele>161.64</ele>
        <time>2020-09-07T14:00:45Z</time>
      </trkpt>
      <trkpt lat="49.64595" lon="4.98491">
        <ele>160.68</ele>
        <time>2020-09-07T14:01:28Z</time>
      </trkpt>
      <trkpt lat="49.64595" lon="4.98491">
        <ele>160.68</ele>
        <time>2020-09-07T14:02:05Z</time>
      </trkpt>
      <trkpt lat="49.64596" lon="4.98492">
        <ele>161.16</ele>
        <time>2020-09-07T14:02:43Z</time>
      </trkpt>
      <trkpt lat="49.64595" lon="4.98491">
        <ele>161.16</ele>
        <time>2020-09-07T14:03:05Z</time>
      </trkpt>
      <trkpt lat="49.64595" lon="4.98491">
        <ele>161.16</ele>
        <time>2020-09-07T14:03:41Z</time>
      </trkpt>
      <trkpt lat="49.64595" lon="4.98489">
        <ele>161.16</ele>
        <time>2020-09-07T14:04:18Z</time>
      </trkpt>
      <trkpt lat="49.64595" lon="4.98489">
        <ele>162.6</ele>
        <time>2020-09-07T14:04:40Z</time>
      </trkpt>
      <trkpt lat="49.64595" lon="4.98489">
        <ele>163.08</ele>
        <time>2020-09-07T14:04:58Z</time>
      </trkpt>
      <trkpt lat="49.64596" lon="4.98489">
        <ele>162.6</ele>
        <time>2020-09-07T14:05:26Z</time>
      </trkpt>
      <trkpt lat="49.64596" lon="4.98489">
        <ele>162.6</ele>
        <time>2020-09-07T14:05:47Z</time>
      </trkpt>
      <trkpt lat="49.64596" lon="4.98489">
        <ele>162.6</ele>
        <time>2020-09-07T14:06:07Z</time>
      </trkpt>
      <trkpt lat="49.64595" lon="4.98489">
        <ele>163.08</ele>
        <time>2020-09-07T14:06:35Z</time>
      </trkpt>
      <trkpt lat="49.6459" lon="4.98484">
        <ele>163.08</ele>
        <time>2020-09-07T14:06:50Z</time>
      </trkpt>
      <trkpt lat="49.64575" lon="4.98475">
        <ele>162.12</ele>
        <time>2020-09-07T14:07:08Z</time>
      </trkpt>
      <trkpt lat="49.64559" lon="4.98464">
        <ele>162.12</ele>
        <time>2020-09-07T14:07:27Z</time>
      </trkpt>
      <trkpt lat="49.6454" lon="4.98456">
        <ele>162.6</ele>
        <time>2020-09-07T14:07:43Z</time>
      </trkpt>
      <trkpt lat="49.64526" lon="4.98447">
        <ele>163.08</ele>
        <time>2020-09-07T14:07:58Z</time>
      </trkpt>
      <trkpt lat="49.64512" lon="4.98438">
        <ele>164.04</ele>
        <time>2020-09-07T14:08:13Z</time>
      </trkpt>
      <trkpt lat="49.64503" lon="4.98433">
        <ele>163.56</ele>
        <time>2020-09-07T14:08:22Z</time>
      </trkpt>
      <trkpt lat="49.64488" lon="4.98424">
        <ele>167.41</ele>
        <time>2020-09-07T14:08:40Z</time>
      </trkpt>
      <trkpt lat="49.64473" lon="4.98415">
        <ele>169.81</ele>
        <time>2020-09-07T14:08:56Z</time>
      </trkpt>
      <trkpt lat="49.64458" lon="4.98406">
        <ele>170.29</ele>
        <time>2020-09-07T14:09:11Z</time>
      </trkpt>
      <trkpt lat="49.64442" lon="4.98394">
        <ele>168.85</ele>
        <time>2020-09-07T14:09:29Z</time>
      </trkpt>
      <trkpt lat="49.64425" lon="4.98387">
        <ele>168.85</ele>
        <time>2020-09-07T14:09:44Z</time>
      </trkpt>
      <trkpt lat="49.64409" lon="4.98375">
        <ele>168.85</ele>
        <time>2020-09-07T14:10:01Z</time>
      </trkpt>
      <trkpt lat="49.64394" lon="4.98362">
        <ele>168.85</ele>
        <time>2020-09-07T14:10:18Z</time>
      </trkpt>
      <trkpt lat="49.64376" lon="4.98352">
        <ele>166.93</ele>
        <time>2020-09-07T14:10:35Z</time>
      </trkpt>
      <trkpt lat="49.64359" lon="4.98336">
        <ele>168.85</ele>
        <time>2020-09-07T14:10:53Z</time>
      </trkpt>
      <trkpt lat="49.64345" lon="4.98322">
        <ele>171.73</ele>
        <time>2020-09-07T14:11:10Z</time>
      </trkpt>
      <trkpt lat="49.64332" lon="4.98312">
        <ele>170.77</ele>
        <time>2020-09-07T14:11:25Z</time>
      </trkpt>
      <trkpt lat="49.64318" lon="4.98301">
        <ele>167.41</ele>
        <time>2020-09-07T14:11:41Z</time>
      </trkpt>
      <trkpt lat="49.64295" lon="4.98287">
        <ele>166.93</ele>
        <time>2020-09-07T14:12:02Z</time>
      </trkpt>
      <trkpt lat="49.64282" lon="4.98274">
        <ele>167.41</ele>
        <time>2020-09-07T14:12:19Z</time>
      </trkpt>
      <trkpt lat="49.64267" lon="4.98261">
        <ele>166.93</ele>
        <time>2020-09-07T14:12:38Z</time>
      </trkpt>
      <trkpt lat="49.64261" lon="4.98254">
        <ele>166.45</ele>
        <time>2020-09-07T14:12:44Z</time>
      </trkpt>
      <trkpt lat="49.64245" lon="4.98236">
        <ele>165</ele>
        <time>2020-09-07T14:13:00Z</time>
      </trkpt>
      <trkpt lat="49.64231" lon="4.98223">
        <ele>167.41</ele>
        <time>2020-09-07T14:13:16Z</time>
      </trkpt>
      <trkpt lat="49.64217" lon="4.98208">
        <ele>170.29</ele>
        <time>2020-09-07T14:13:32Z</time>
      </trkpt>
      <trkpt lat="49.64203" lon="4.98194">
        <ele>171.25</ele>
        <time>2020-09-07T14:13:49Z</time>
      </trkpt>
      <trkpt lat="49.64189" lon="4.98183">
        <ele>171.73</ele>
        <time>2020-09-07T14:14:05Z</time>
      </trkpt>
      <trkpt lat="49.64173" lon="4.98173">
        <ele>168.37</ele>
        <time>2020-09-07T14:14:22Z</time>
      </trkpt>
      <trkpt lat="49.64157" lon="4.9816">
        <ele>166.93</ele>
        <time>2020-09-07T14:14:37Z</time>
      </trkpt>
      <trkpt lat="49.64145" lon="4.98146">
        <ele>167.89</ele>
        <time>2020-09-07T14:14:53Z</time>
      </trkpt>
      <trkpt lat="49.6413" lon="4.98129">
        <ele>170.77</ele>
        <time>2020-09-07T14:15:11Z</time>
      </trkpt>
      <trkpt lat="49.64116" lon="4.98112">
        <ele>171.73</ele>
        <time>2020-09-07T14:15:28Z</time>
      </trkpt>
      <trkpt lat="49.64098" lon="4.98097">
        <ele>173.66</ele>
        <time>2020-09-07T14:15:47Z</time>
      </trkpt>
      <trkpt lat="49.64081" lon="4.9808">
        <ele>174.62</ele>
        <time>2020-09-07T14:16:07Z</time>
      </trkpt>
      <trkpt lat="49.64062" lon="4.98065">
        <ele>174.14</ele>
        <time>2020-09-07T14:16:26Z</time>
      </trkpt>
      <trkpt lat="49.64043" lon="4.98048">
        <ele>169.81</ele>
        <time>2020-09-07T14:16:46Z</time>
      </trkpt>
      <trkpt lat="49.64024" lon="4.98031">
        <ele>167.89</ele>
        <time>2020-09-07T14:17:05Z</time>
      </trkpt>
      <trkpt lat="49.64009" lon="4.98014">
        <ele>167.41</ele>
        <time>2020-09-07T14:17:23Z</time>
      </trkpt>
      <trkpt lat="49.64001" lon="4.98004">
        <ele>168.85</ele>
        <time>2020-09-07T14:17:31Z</time>
      </trkpt>
      <trkpt lat="49.63981" lon="4.9799">
        <ele>165.96</ele>
        <time>2020-09-07T14:17:49Z</time>
      </trkpt>
      <trkpt lat="49.63968" lon="4.97973">
        <ele>166.93</ele>
        <time>2020-09-07T14:18:05Z</time>
      </trkpt>
      <trkpt lat="49.63952" lon="4.9796">
        <ele>164.52</ele>
        <time>2020-09-07T14:18:21Z</time>
      </trkpt>
      <trkpt lat="49.63936" lon="4.97946">
        <ele>165.96</ele>
        <time>2020-09-07T14:18:37Z</time>
      </trkpt>
      <trkpt lat="49.63924" lon="4.97935">
        <ele>168.37</ele>
        <time>2020-09-07T14:18:53Z</time>
      </trkpt>
      <trkpt lat="49.63906" lon="4.97918">
        <ele>168.85</ele>
        <time>2020-09-07T14:19:12Z</time>
      </trkpt>
      <trkpt lat="49.63886" lon="4.97903">
        <ele>171.25</ele>
        <time>2020-09-07T14:19:32Z</time>
      </trkpt>
      <trkpt lat="49.63879" lon="4.97895">
        <ele>170.77</ele>
        <time>2020-09-07T14:19:48Z</time>
      </trkpt>
      <trkpt lat="49.63877" lon="4.97892">
        <ele>170.29</ele>
        <time>2020-09-07T14:20:07Z</time>
      </trkpt>
      <trkpt lat="49.63866" lon="4.97881">
        <ele>171.25</ele>
        <time>2020-09-07T14:20:24Z</time>
      </trkpt>
      <trkpt lat="49.63858" lon="4.97873">
        <ele>171.73</ele>
        <time>2020-09-07T14:20:39Z</time>
      </trkpt>
      <trkpt lat="49.63849" lon="4.97865">
        <ele>171.73</ele>
        <time>2020-09-07T14:20:52Z</time>
      </trkpt>
      <trkpt lat="49.63846" lon="4.97861">
        <ele>172.21</ele>
        <time>2020-09-07T14:20:57Z</time>
      </trkpt>
      <trkpt lat="49.63827" lon="4.97845">
        <ele>171.25</ele>
        <time>2020-09-07T14:21:15Z</time>
      </trkpt>
      <trkpt lat="49.63825" lon="4.97843">
        <ele>171.25</ele>
        <time>2020-09-07T14:21:17Z</time>
      </trkpt>
      <trkpt lat="49.63811" lon="4.97829">
        <ele>173.66</ele>
        <time>2020-09-07T14:21:36Z</time>
      </trkpt>
      <trkpt lat="49.6381" lon="4.97828">
        <ele>174.14</ele>
        <time>2020-09-07T14:21:38Z</time>
      </trkpt>
      <trkpt lat="49.63801" lon="4.97819">
        <ele>175.1</ele>
        <time>2020-09-07T14:21:57Z</time>
      </trkpt>
      <trkpt lat="49.638" lon="4.97817">
        <ele>172.69</ele>
        <time>2020-09-07T14:22:18Z</time>
      </trkpt>
      <trkpt lat="49.63792" lon="4.97812">
        <ele>171.73</ele>
        <time>2020-09-07T14:22:33Z</time>
      </trkpt>
      <trkpt lat="49.63789" lon="4.97812">
        <ele>169.81</ele>
        <time>2020-09-07T14:22:50Z</time>
      </trkpt>
      <trkpt lat="49.63788" lon="4.97813">
        <ele>168.37</ele>
        <time>2020-09-07T14:23:17Z</time>
      </trkpt>
      <trkpt lat="49.63788" lon="4.97812">
        <ele>166.45</ele>
        <time>2020-09-07T14:23:44Z</time>
      </trkpt>
      <trkpt lat="49.63787" lon="4.97813">
        <ele>166.45</ele>
        <time>2020-09-07T14:24:11Z</time>
      </trkpt>
      <trkpt lat="49.63787" lon="4.97812">
        <ele>166.45</ele>
        <time>2020-09-07T14:24:30Z</time>
      </trkpt>
      <trkpt lat="49.63785" lon="4.97812">
        <ele>165.96</ele>
        <time>2020-09-07T14:25:01Z</time>
      </trkpt>
      <trkpt lat="49.63786" lon="4.97811">
        <ele>165</ele>
        <time>2020-09-07T14:25:30Z</time>
      </trkpt>
      <trkpt lat="49.63786" lon="4.97811">
        <ele>165</ele>
        <time>2020-09-07T14:25:57Z</time>
      </trkpt>
      <trkpt lat="49.63786" lon="4.97811">
        <ele>165</ele>
        <time>2020-09-07T14:26:29Z</time>
      </trkpt>
      <trkpt lat="49.63786" lon="4.97812">
        <ele>165</ele>
        <time>2020-09-07T14:26:49Z</time>
      </trkpt>
      <trkpt lat="49.63786" lon="4.97812">
        <ele>165.48</ele>
        <time>2020-09-07T14:27:10Z</time>
      </trkpt>
      <trkpt lat="49.63786" lon="4.97813">
        <ele>165.96</ele>
        <time>2020-09-07T14:27:35Z</time>
      </trkpt>
      <trkpt lat="49.63786" lon="4.97813">
        <ele>165.96</ele>
        <time>2020-09-07T14:27:51Z</time>
      </trkpt>
      <trkpt lat="49.63787" lon="4.97813">
        <ele>165.48</ele>
        <time>2020-09-07T14:28:09Z</time>
      </trkpt>
      <trkpt lat="49.63787" lon="4.97813">
        <ele>165.48</ele>
        <time>2020-09-07T14:28:34Z</time>
      </trkpt>
      <trkpt lat="49.63787" lon="4.97812">
        <ele>165.48</ele>
        <time>2020-09-07T14:28:53Z</time>
      </trkpt>
      <trkpt lat="49.63787" lon="4.97812">
        <ele>165.48</ele>
        <time>2020-09-07T14:29:18Z</time>
      </trkpt>
      <trkpt lat="49.63787" lon="4.97812">
        <ele>165.48</ele>
        <time>2020-09-07T14:29:42Z</time>
      </trkpt>
      <trkpt lat="49.63787" lon="4.97813">
        <ele>165.48</ele>
        <time>2020-09-07T14:30:06Z</time>
      </trkpt>
      <trkpt lat="49.63787" lon="4.97813">
        <ele>165.48</ele>
        <time>2020-09-07T14:30:29Z</time>
      </trkpt>
      <trkpt lat="49.63787" lon="4.97814">
        <ele>165.48</ele>
        <time>2020-09-07T14:30:47Z</time>
      </trkpt>
      <trkpt lat="49.63787" lon="4.97813">
        <ele>165.48</ele>
        <time>2020-09-07T14:31:05Z</time>
      </trkpt>
      <trkpt lat="49.63787" lon="4.97813">
        <ele>165.96</ele>
        <time>2020-09-07T14:31:32Z</time>
      </trkpt>
      <trkpt lat="49.63788" lon="4.97813">
        <ele>165.48</ele>
        <time>2020-09-07T14:31:58Z</time>
      </trkpt>
      <trkpt lat="49.63788" lon="4.97813">
        <ele>165</ele>
        <time>2020-09-07T14:32:23Z</time>
      </trkpt>
      <trkpt lat="49.63788" lon="4.97813">
        <ele>165.48</ele>
        <time>2020-09-07T14:32:49Z</time>
      </trkpt>
      <trkpt lat="49.63788" lon="4.97814">
        <ele>165.48</ele>
        <time>2020-09-07T14:33:04Z</time>
      </trkpt>
      <trkpt lat="49.63788" lon="4.97814">
        <ele>165.48</ele>
        <time>2020-09-07T14:33:26Z</time>
      </trkpt>
      <trkpt lat="49.63779" lon="4.97802">
        <ele>165.48</ele>
        <time>2020-09-07T14:33:40Z</time>
      </trkpt>
      <trkpt lat="49.63764" lon="4.97788">
        <ele>164.52</ele>
        <time>2020-09-07T14:33:55Z</time>
      </trkpt>
      <trkpt lat="49.63746" lon="4.97769">
        <ele>165.48</ele>
        <time>2020-09-07T14:34:15Z</time>
      </trkpt>
      <trkpt lat="49.6373" lon="4.97757">
        <ele>166.45</ele>
        <time>2020-09-07T14:34:33Z</time>
      </trkpt>
      <trkpt lat="49.63714" lon="4.97745">
        <ele>166.45</ele>
        <time>2020-09-07T14:34:48Z</time>
      </trkpt>
      <trkpt lat="49.63695" lon="4.97729">
        <ele>168.85</ele>
        <time>2020-09-07T14:35:08Z</time>
      </trkpt>
      <trkpt lat="49.6368" lon="4.97719">
        <ele>169.33</ele>
        <time>2020-09-07T14:35:24Z</time>
      </trkpt>
      <trkpt lat="49.63665" lon="4.97707">
        <ele>169.81</ele>
        <time>2020-09-07T14:35:40Z</time>
      </trkpt>
      <trkpt lat="49.63658" lon="4.97702">
        <ele>169.33</ele>
        <time>2020-09-07T14:35:46Z</time>
      </trkpt>
      <trkpt lat="49.63643" lon="4.97689">
        <ele>169.81</ele>
        <time>2020-09-07T14:36:02Z</time>
      </trkpt>
      <trkpt lat="49.63627" lon="4.97676">
        <ele>171.25</ele>
        <time>2020-09-07T14:36:20Z</time>
      </trkpt>
      <trkpt lat="49.63611" lon="4.97663">
        <ele>170.77</ele>
        <time>2020-09-07T14:36:34Z</time>
      </trkpt>
      <trkpt lat="49.63601" lon="4.97668">
        <ele>167.89</ele>
        <time>2020-09-07T14:36:45Z</time>
      </trkpt>
      <trkpt lat="49.63588" lon="4.97677">
        <ele>168.85</ele>
        <time>2020-09-07T14:36:56Z</time>
      </trkpt>
      <trkpt lat="49.63574" lon="4.97696">
        <ele>168.37</ele>
        <time>2020-09-07T14:37:14Z</time>
      </trkpt>
      <trkpt lat="49.63561" lon="4.97715">
        <ele>167.41</ele>
        <time>2020-09-07T14:37:32Z</time>
      </trkpt>
      <trkpt lat="49.63544" lon="4.97741">
        <ele>171.73</ele>
        <time>2020-09-07T14:37:49Z</time>
      </trkpt>
      <trkpt lat="49.63538" lon="4.97761">
        <ele>173.17</ele>
        <time>2020-09-07T14:38:04Z</time>
      </trkpt>
      <trkpt lat="49.63534" lon="4.97769">
        <ele>174.62</ele>
        <time>2020-09-07T14:38:10Z</time>
      </trkpt>
      <trkpt lat="49.63532" lon="4.97774">
        <ele>176.06</ele>
        <time>2020-09-07T14:38:14Z</time>
      </trkpt>
      <trkpt lat="49.63518" lon="4.97797">
        <ele>180.87</ele>
        <time>2020-09-07T14:38:28Z</time>
      </trkpt>
      <trkpt lat="49.63512" lon="4.97805">
        <ele>181.35</ele>
        <time>2020-09-07T14:38:41Z</time>
      </trkpt>
      <trkpt lat="49.63501" lon="4.97821">
        <ele>180.87</ele>
        <time>2020-09-07T14:38:56Z</time>
      </trkpt>
      <trkpt lat="49.63486" lon="4.97835">
        <ele>177.98</ele>
        <time>2020-09-07T14:39:11Z</time>
      </trkpt>
      <trkpt lat="49.63475" lon="4.97852">
        <ele>178.46</ele>
        <time>2020-09-07T14:39:24Z</time>
      </trkpt>
      <trkpt lat="49.63465" lon="4.97867">
        <ele>180.38</ele>
        <time>2020-09-07T14:39:40Z</time>
      </trkpt>
      <trkpt lat="49.63456" lon="4.97883">
        <ele>181.83</ele>
        <time>2020-09-07T14:39:51Z</time>
      </trkpt>
      <trkpt lat="49.63437" lon="4.97897">
        <ele>183.75</ele>
        <time>2020-09-07T14:40:07Z</time>
      </trkpt>
      <trkpt lat="49.63418" lon="4.9791">
        <ele>182.79</ele>
        <time>2020-09-07T14:40:24Z</time>
      </trkpt>
      <trkpt lat="49.63404" lon="4.97922">
        <ele>183.27</ele>
        <time>2020-09-07T14:40:41Z</time>
      </trkpt>
      <trkpt lat="49.63388" lon="4.97936">
        <ele>180.87</ele>
        <time>2020-09-07T14:40:56Z</time>
      </trkpt>
      <trkpt lat="49.6339" lon="4.97952">
        <ele>179.9</ele>
        <time>2020-09-07T14:41:04Z</time>
      </trkpt>
      <trkpt lat="49.63396" lon="4.9797">
        <ele>180.87</ele>
        <time>2020-09-07T14:41:19Z</time>
      </trkpt>
      <trkpt lat="49.63399" lon="4.97975">
        <ele>181.83</ele>
        <time>2020-09-07T14:41:22Z</time>
      </trkpt>
      <trkpt lat="49.63406" lon="4.97989">
        <ele>183.75</ele>
        <time>2020-09-07T14:41:35Z</time>
      </trkpt>
      <trkpt lat="49.63412" lon="4.98004">
        <ele>185.67</ele>
        <time>2020-09-07T14:41:51Z</time>
      </trkpt>
      <trkpt lat="49.63414" lon="4.98009">
        <ele>186.15</ele>
        <time>2020-09-07T14:41:55Z</time>
      </trkpt>
      <trkpt lat="49.63421" lon="4.98032">
        <ele>187.11</ele>
        <time>2020-09-07T14:42:09Z</time>
      </trkpt>
      <trkpt lat="49.63435" lon="4.98045">
        <ele>187.11</ele>
        <time>2020-09-07T14:42:21Z</time>
      </trkpt>
      <trkpt lat="49.63447" lon="4.98051">
        <ele>185.19</ele>
        <time>2020-09-07T14:42:40Z</time>
      </trkpt>
      <trkpt lat="49.6345" lon="4.98052">
        <ele>184.23</ele>
        <time>2020-09-07T14:43:04Z</time>
      </trkpt>
      <trkpt lat="49.63451" lon="4.98052">
        <ele>184.23</ele>
        <time>2020-09-07T14:43:23Z</time>
      </trkpt>
      <trkpt lat="49.63453" lon="4.98052">
        <ele>184.71</ele>
        <time>2020-09-07T14:43:51Z</time>
      </trkpt>
      <trkpt lat="49.63453" lon="4.98051">
        <ele>184.71</ele>
        <time>2020-09-07T14:44:16Z</time>
      </trkpt>
      <trkpt lat="49.63454" lon="4.9805">
        <ele>185.19</ele>
        <time>2020-09-07T14:44:45Z</time>
      </trkpt>
      <trkpt lat="49.63454" lon="4.98051">
        <ele>185.19</ele>
        <time>2020-09-07T14:45:13Z</time>
      </trkpt>
      <trkpt lat="49.63455" lon="4.9805">
        <ele>184.71</ele>
        <time>2020-09-07T14:45:42Z</time>
      </trkpt>
      <trkpt lat="49.63455" lon="4.9805">
        <ele>184.23</ele>
        <time>2020-09-07T14:46:05Z</time>
      </trkpt>
      <trkpt lat="49.63456" lon="4.98049">
        <ele>182.79</ele>
        <time>2020-09-07T14:46:23Z</time>
      </trkpt>
      <trkpt lat="49.63456" lon="4.98049">
        <ele>182.79</ele>
        <time>2020-09-07T14:46:43Z</time>
      </trkpt>
      <trkpt lat="49.63456" lon="4.98049">
        <ele>182.31</ele>
        <time>2020-09-07T14:47:06Z</time>
      </trkpt>
      <trkpt lat="49.63456" lon="4.98049">
        <ele>182.31</ele>
        <time>2020-09-07T14:47:10Z</time>
      </trkpt>
    </trkseg>
  </trk>
</gpx>